Observation data for Fort McKavett on 07/20/2019      Previous  Date       Current Mesonet Observations  Soil Data  Daily Summary Page  Observations in Plain Language
KMC1 200500Z 13007KT 28/19 A30 RMK A01 T02790194  RH  060%=      5-min Rain = 0
KMC1 200501Z 12007KT 28/19 A30 RMK A01 T02790194  RH  060%=      5-min Rain = 0
KMC1 200502Z 13007KT 28/20 A30 RMK A01 T02790195  RH  060%=      5-min Rain = 0
KMC1 200503Z 14008KT 28/20 A30 RMK A01 T02780195  RH  061%=      5-min Rain = 0
KMC1 200504Z 13010KT 28/20 A30 RMK A01 T02780196  RH  061%=      5-min Rain = 0
KMC1 200505Z 13010KT 28/20 A30 RMK A01 T02780196  RH  061%=      5-min Rain = 0
KMC1 200506Z 14009KT 28/20 A30 RMK A01 T02780197  RH  061%=      5-min Rain = 0
KMC1 200507Z 13009KT 28/20 A30 RMK A01 T02780197  RH  061%=      5-min Rain = 0
KMC1 200508Z 13010KT 28/20 A30 RMK A01 T02780197  RH  061%=      5-min Rain = 0
KMC1 200509Z 13008KT 28/20 A30 RMK A01 T02780198  RH  062%=      5-min Rain = 0
KMC1 200510Z 13009KT 28/20 A30 RMK A01 T02780198  RH  062%=      5-min Rain = 0
KMC1 200511Z 13008KT 28/20 A30 RMK A01 T02780199  RH  062%=      5-min Rain = 0
KMC1 200512Z 12008KT 28/20 A30 RMK A01 T02790199  RH  062%=      5-min Rain = 0
KMC1 200513Z 13007KT 28/20 A30 RMK A01 T02780199  RH  062%=      5-min Rain = 0
KMC1 200514Z 13009G14KT 28/20 A30 RMK A01 T02780200  RH  062%=      5-min Rain = 0
KMC1 200515Z 13011G16KT 28/20 A30 RMK A01 T02780200  RH  063%=      5-min Rain = 0
KMC1 200516Z 13011KT 28/20 A30 RMK A01 T02770201  RH  063%=      5-min Rain = 0
KMC1 200517Z 13008KT 28/20 A30 RMK A01 T02780201  RH  063%=      5-min Rain = 0
KMC1 200518Z 14008KT 28/20 A30 RMK A01 T02780201  RH  063%=      5-min Rain = 0
KMC1 200519Z 13006KT 28/20 A30 RMK A01 T02780202  RH  063%=      5-min Rain = 0
KMC1 200520Z 13009KT 28/20 A30 RMK A01 T02770202  RH  064%=      5-min Rain = 0
KMC1 200521Z 13010KT 28/20 A30 RMK A01 T02770203  RH  064%=      5-min Rain = 0
KMC1 200522Z 13008KT 28/20 A30 RMK A01 T02770203  RH  064%=      5-min Rain = 0
KMC1 200523Z 13008KT 28/20 A30 RMK A01 T02770203  RH  064%=      5-min Rain = 0
KMC1 200524Z 13009KT 28/20 A30 RMK A01 T02770203  RH  064%=      5-min Rain = 0
KMC1 200525Z 13011KT 28/20 A30 RMK A01 T02760204  RH  065%=      5-min Rain = 0
KMC1 200526Z 13009KT 28/20 A30 RMK A01 T02760204  RH  065%=      5-min Rain = 0
KMC1 200527Z 14007KT 28/20 A30 RMK A01 T02760204  RH  065%=      5-min Rain = 0
KMC1 200528Z 13006KT 28/20 A30 RMK A01 T02760204  RH  065%=      5-min Rain = 0
KMC1 200529Z 13009KT 28/20 A30 RMK A01 T02760204  RH  065%=      5-min Rain = 0
KMC1 200530Z 12005KT 28/21 A30 RMK A01 T02760205  RH  065%=      5-min Rain = 0
KMC1 200531Z 13008KT 28/21 A30 RMK A01 T02750205  RH  065%=      5-min Rain = 0
KMC1 200532Z 13009KT 28/21 A30 RMK A01 T02750205  RH  066%=      5-min Rain = 0
KMC1 200533Z 13007KT 28/21 A30 RMK A01 T02750206  RH  066%=      5-min Rain = 0
KMC1 200534Z 13006KT 28/21 A30 RMK A01 T02750206  RH  066%=      5-min Rain = 0
KMC1 200535Z 14009KT 28/21 A30 RMK A01 T02750206  RH  066%=      5-min Rain = 0
KMC1 200536Z 14007KT 27/21 A30 RMK A01 T02740206  RH  066%=      5-min Rain = 0
KMC1 200537Z 13006KT 27/21 A30 RMK A01 T02740206  RH  066%=      5-min Rain = 0
KMC1 200538Z 13009G15KT 27/21 A30 RMK A01 T02740206  RH  067%=      5-min Rain = 0
KMC1 200539Z 14008G13KT 27/21 A30 RMK A01 T02730206  RH  067%=      5-min Rain = 0
KMC1 200540Z 14007KT 27/21 A30 RMK A01 T02740207  RH  067%=      5-min Rain = 0
KMC1 200541Z 14008KT 27/21 A30 RMK A01 T02740207  RH  067%=      5-min Rain = 0
KMC1 200542Z 13008G13KT 27/21 A30 RMK A01 T02730207  RH  067%=      5-min Rain = 0
KMC1 200543Z 13010G15KT 27/21 A30 RMK A01 T02730207  RH  067%=      5-min Rain = 0
KMC1 200544Z 14008KT 27/21 A30 RMK A01 T02730207  RH  067%=      5-min Rain = 0
KMC1 200545Z 13006G11KT 27/21 A30 RMK A01 T02730207  RH  067%=      5-min Rain = 0
KMC1 200546Z 14008KT 27/21 A30 RMK A01 T02730207  RH  067%=      5-min Rain = 0
KMC1 200547Z 13006KT 27/21 A30 RMK A01 T02730208  RH  067%=      5-min Rain = 0
KMC1 200548Z 14005KT 27/21 A30 RMK A01 T02730208  RH  067%=      5-min Rain = 0
KMC1 200549Z 13006KT 27/21 A30 RMK A01 T02730207  RH  067%=      5-min Rain = 0
KMC1 200550Z 14007KT 27/21 A30 RMK A01 T02720208  RH  068%=      5-min Rain = 0
KMC1 200551Z 15007KT 27/21 A30 RMK A01 T02720208  RH  068%=      5-min Rain = 0
KMC1 200552Z 14010KT 27/21 A30 RMK A01 T02720208  RH  068%=      5-min Rain = 0
KMC1 200553Z 14008KT 27/21 A30 RMK A01 T02720208  RH  068%=      5-min Rain = 0
KMC1 200554Z 14007KT 27/21 A30 RMK A01 T02710208  RH  068%=      5-min Rain = 0
KMC1 200555Z 14009KT 27/21 A30 RMK A01 T02710209  RH  069%=      5-min Rain = 0
KMC1 200556Z 14011G17KT 27/21 A30 RMK A01 T02710209  RH  069%=      5-min Rain = 0
KMC1 200557Z 15010G15KT 27/21 A30 RMK A01 T02710210  RH  069%=      5-min Rain = 0
KMC1 200558Z 15010G16KT 27/21 A30 RMK A01 T02710211  RH  069%=      5-min Rain = 0
KMC1 200559Z 15012G17KT 27/21 A30 RMK A01 T02710211  RH  070%=      5-min Rain = 0
KMC1 200600Z 15011G16KT 27/21 A30 RMK A01 T02720212  RH  070%=      5-min Rain = 0
KMC1 200601Z 14009G14KT 27/21 A30 RMK A01 T02720212  RH  070%=      5-min Rain = 0
KMC1 200602Z 16008KT 27/21 A30 RMK A01 T02720213  RH  070%=      5-min Rain = 0
KMC1 200603Z 14009KT 27/21 A30 RMK A01 T02720214  RH  071%=      5-min Rain = 0
KMC1 200604Z 15010KT 27/21 A30 RMK A01 T02710214  RH  071%=      5-min Rain = 0
KMC1 200605Z 15013G20KT 27/22 A30 RMK A01 T02710215  RH  071%=      5-min Rain = 0
KMC1 200606Z 15012G18KT 27/22 A30 RMK A01 T02710215  RH  071%=      5-min Rain = 0
KMC1 200607Z 15009G14KT 27/22 A30 RMK A01 T02710215  RH  071%=      5-min Rain = 0
KMC1 200608Z 15008G13KT 27/22 A30 RMK A01 T02710215  RH  071%=      5-min Rain = 0
KMC1 200609Z 15008KT 27/22 A30 RMK A01 T02710216  RH  072%=      5-min Rain = 0
KMC1 200610Z 14008G13KT 27/22 A30 RMK A01 T02710215  RH  072%=      5-min Rain = 0
KMC1 200611Z 15007KT 27/22 A30 RMK A01 T02700215  RH  072%=      5-min Rain = 0
KMC1 200612Z 14012KT 27/22 A30 RMK A01 T02700216  RH  072%=      5-min Rain = 0
KMC1 200613Z 14013G19KT 27/22 A30 RMK A01 T02700216  RH  072%=      5-min Rain = 0
KMC1 200614Z 14009KT 27/22 A30 RMK A01 T02700216  RH  072%=      5-min Rain = 0
KMC1 200615Z 14010G16KT 27/22 A30 RMK A01 T02700215  RH  072%=      5-min Rain = 0
KMC1 200616Z 14012G17KT 27/22 A30 RMK A01 T02700216  RH  072%=      5-min Rain = 0
KMC1 200617Z 14010G16KT 27/22 A30 RMK A01 T02700216  RH  072%=      5-min Rain = 0
KMC1 200618Z 15010G15KT 27/22 A30 RMK A01 T02700216  RH  072%=      5-min Rain = 0
KMC1 200619Z 14013KT 27/22 A30 RMK A01 T02700216  RH  073%=      5-min Rain = 0
KMC1 200620Z 15012G19KT 27/22 A30 RMK A01 T02690216  RH  073%=      5-min Rain = 0
KMC1 200621Z 15010G17KT 27/22 A30 RMK A01 T02700216  RH  073%=      5-min Rain = 0
KMC1 200622Z 14012G18KT 27/22 A30 RMK A01 T02690216  RH  073%=      5-min Rain = 0
KMC1 200623Z 14009KT 27/22 A30 RMK A01 T02690217  RH  073%=      5-min Rain = 0
KMC1 200624Z 14014G21KT 27/22 A30 RMK A01 T02690216  RH  073%=      5-min Rain = 0
KMC1 200625Z 14011G18KT 27/22 A30 RMK A01 T02690217  RH  073%=      5-min Rain = 0
KMC1 200626Z 14012KT 27/22 A30 RMK A01 T02690217  RH  073%=      5-min Rain = 0
KMC1 200627Z 14010KT 27/22 A30 RMK A01 T02690216  RH  073%=      5-min Rain = 0
KMC1 200628Z 14009G14KT 27/22 A30 RMK A01 T02690217  RH  073%=      5-min Rain = 0
KMC1 200629Z 14012G18KT 27/22 A30 RMK A01 T02680217  RH  073%=      5-min Rain = 0
KMC1 200630Z 14010KT 27/22 A30 RMK A01 T02680217  RH  073%=      5-min Rain = 0
KMC1 200631Z 14012G18KT 27/22 A30 RMK A01 T02680216  RH  073%=      5-min Rain = 0
KMC1 200632Z 15011G17KT 27/22 A30 RMK A01 T02680217  RH  074%=      5-min Rain = 0
KMC1 200633Z 14009KT 27/22 A30 RMK A01 T02680217  RH  074%=      5-min Rain = 0
KMC1 200634Z 15007KT 27/22 A30 RMK A01 T02670217  RH  074%=      5-min Rain = 0
KMC1 200635Z 15010KT 27/22 A30 RMK A01 T02670216  RH  074%=      5-min Rain = 0
KMC1 200636Z 15008G13KT 27/22 A30 RMK A01 T02660216  RH  074%=      5-min Rain = 0
KMC1 200637Z 15014G20KT 27/22 A30 RMK A01 T02660216  RH  074%=      5-min Rain = 0
KMC1 200638Z 14012G17KT 27/22 A30 RMK A01 T02660216  RH  074%=      5-min Rain = 0
KMC1 200639Z 15010G15KT 27/22 A30 RMK A01 T02660216  RH  074%=      5-min Rain = 0
KMC1 200640Z 15010G15KT 27/22 A30 RMK A01 T02660216  RH  074%=      5-min Rain = 0
KMC1 200641Z 14009G14KT 27/22 A30 RMK A01 T02660216  RH  074%=      5-min Rain = 0
KMC1 200642Z 15007G15KT 27/22 A30 RMK A01 T02660216  RH  074%=      5-min Rain = 0
KMC1 200643Z 15009G14KT 27/22 A30 RMK A01 T02660216  RH  074%=      5-min Rain = 0
KMC1 200644Z 15008G14KT 27/22 A30 RMK A01 T02650216  RH  074%=      5-min Rain = 0
KMC1 200645Z 15007KT 27/22 A30 RMK A01 T02650216  RH  074%=      5-min Rain = 0
KMC1 200646Z 15008G13KT 27/22 A30 RMK A01 T02650216  RH  075%=      5-min Rain = 0
KMC1 200647Z 15008KT 27/22 A30 RMK A01 T02650216  RH  075%=      5-min Rain = 0
KMC1 200648Z 15006KT 26/22 A30 RMK A01 T02640216  RH  075%=      5-min Rain = 0
KMC1 200649Z 15006G11KT 26/22 A30 RMK A01 T02640216  RH  075%=      5-min Rain = 0
KMC1 200650Z 15007KT 26/22 A30 RMK A01 T02630216  RH  075%=      5-min Rain = 0
KMC1 200651Z 14005KT 26/22 A30 RMK A01 T02630216  RH  075%=      5-min Rain = 0
KMC1 200652Z 14005KT 26/22 A30 RMK A01 T02630216  RH  075%=      5-min Rain = 0
KMC1 200653Z 14006KT 26/22 A30 RMK A01 T02630216  RH  076%=      5-min Rain = 0
KMC1 200654Z 15006KT 26/22 A30 RMK A01 T02620216  RH  076%=      5-min Rain = 0
KMC1 200655Z 15006G12KT 26/22 A30 RMK A01 T02620216  RH  076%=      5-min Rain = 0
KMC1 200656Z 14006KT 26/22 A30 RMK A01 T02620216  RH  076%=      5-min Rain = 0
KMC1 200657Z 15008G13KT 26/22 A30 RMK A01 T02610216  RH  076%=      5-min Rain = 0
KMC1 200658Z 15007KT 26/22 A30 RMK A01 T02610216  RH  076%=      5-min Rain = 0
KMC1 200659Z 15009KT 26/22 A30 RMK A01 T02610216  RH  076%=      5-min Rain = 0
KMC1 200700Z 14007KT 26/22 A30 RMK A01 T02610216  RH  076%=      5-min Rain = 0
KMC1 200701Z 14007KT 26/22 A30 RMK A01 T02610216  RH  076%=      5-min Rain = 0
KMC1 200702Z 14006KT 26/22 A30 RMK A01 T02610216  RH  076%=      5-min Rain = 0
KMC1 200703Z 15008KT 26/22 A30 RMK A01 T02600216  RH  076%=      5-min Rain = 0
KMC1 200704Z 14008KT 26/22 A30 RMK A01 T02600216  RH  076%=      5-min Rain = 0
KMC1 200705Z 15006G11KT 26/22 A30 RMK A01 T02600215  RH  076%=      5-min Rain = 0
KMC1 200706Z 15007KT 26/22 A30 RMK A01 T02600216  RH  076%=      5-min Rain = 0
KMC1 200707Z 15008KT 26/22 A30 RMK A01 T02600215  RH  077%=      5-min Rain = 0
KMC1 200708Z 15007KT 26/22 A30 RMK A01 T02590215  RH  077%=      5-min Rain = 0
KMC1 200709Z 14007G12KT 26/22 A30 RMK A01 T02590215  RH  077%=      5-min Rain = 0
KMC1 200710Z 15007KT 26/22 A30 RMK A01 T02590215  RH  077%=      5-min Rain = 0
KMC1 200711Z 14007G12KT 26/22 A2999 RMK A01 T02590215  RH  077%=      5-min Rain = 0
KMC1 200712Z 15008KT 26/22 A2999 RMK A01 T02590215  RH  077%=      5-min Rain = 0
KMC1 200713Z 14007KT 26/21 A2999 RMK A01 T02580214  RH  077%=      5-min Rain = 0
KMC1 200714Z 14012G18KT 26/21 A2999 RMK A01 T02580214  RH  077%=      5-min Rain = 0
KMC1 200715Z 15011KT 26/21 A2999 RMK A01 T02580214  RH  076%=      5-min Rain = 0
KMC1 200716Z 15010KT 26/21 A2999 RMK A01 T02580214  RH  076%=      5-min Rain = 0
KMC1 200717Z 15008KT 26/21 A2999 RMK A01 T02580213  RH  076%=      5-min Rain = 0
KMC1 200718Z 15008KT 26/21 A2999 RMK A01 T02580214  RH  076%=      5-min Rain = 0
KMC1 200719Z 15008KT 26/21 A2999 RMK A01 T02580213  RH  076%=      5-min Rain = 0
KMC1 200720Z 14008G13KT 26/21 A2999 RMK A01 T02570213  RH  076%=      5-min Rain = 0
KMC1 200721Z 14009KT 26/21 A2999 RMK A01 T02570213  RH  076%=      5-min Rain = 0
KMC1 200722Z 15011G16KT 26/21 A2999 RMK A01 T02570213  RH  076%=      5-min Rain = 0
KMC1 200723Z 15010G16KT 26/21 A2999 RMK A01 T02570212  RH  076%=      5-min Rain = 0
KMC1 200724Z 15010G15KT 26/21 A2999 RMK A01 T02570212  RH  076%=      5-min Rain = 0
KMC1 200725Z 15011KT 26/21 A2999 RMK A01 T02570212  RH  076%=      5-min Rain = 0
KMC1 200726Z 16011G16KT 26/21 A2999 RMK A01 T02570212  RH  076%=      5-min Rain = 0
KMC1 200727Z 16011KT 26/21 A2999 RMK A01 T02570212  RH  076%=      5-min Rain = 0
KMC1 200728Z 16007KT 26/21 A2999 RMK A01 T02570212  RH  076%=      5-min Rain = 0
KMC1 200729Z 15008G13KT 26/21 A2999 RMK A01 T02560212  RH  076%=      5-min Rain = 0
KMC1 200730Z 16010KT 26/21 A2999 RMK A01 T02560212  RH  077%=      5-min Rain = 0
KMC1 200731Z 16008KT 26/21 A2999 RMK A01 T02560212  RH  077%=      5-min Rain = 0
KMC1 200732Z 15010KT 26/21 A2999 RMK A01 T02550211  RH  077%=      5-min Rain = 0
KMC1 200733Z 16009KT 26/21 A2999 RMK A01 T02560212  RH  077%=      5-min Rain = 0
KMC1 200734Z 16009G14KT 26/21 A2999 RMK A01 T02550212  RH  077%=      5-min Rain = 0
KMC1 200735Z 15008G13KT 26/21 A2999 RMK A01 T02550212  RH  077%=      5-min Rain = 0
KMC1 200736Z 14008KT 26/21 A2999 RMK A01 T02550212  RH  077%=      5-min Rain = 0
KMC1 200737Z 16008KT 26/21 A2999 RMK A01 T02550211  RH  077%=      5-min Rain = 0
KMC1 200738Z 16006KT 25/21 A2999 RMK A01 T02540211  RH  077%=      5-min Rain = 0
KMC1 200739Z 16009G15KT 25/21 A2999 RMK A01 T02540212  RH  077%=      5-min Rain = 0
KMC1 200740Z 15007KT 25/21 A2999 RMK A01 T02540212  RH  077%=      5-min Rain = 0
KMC1 200741Z 16005KT 25/21 A2999 RMK A01 T02540211  RH  077%=      5-min Rain = 0
KMC1 200742Z 16007KT 25/21 A2999 RMK A01 T02530211  RH  077%=      5-min Rain = 0
KMC1 200743Z 16009KT 25/21 A2999 RMK A01 T02530211  RH  078%=      5-min Rain = 0
KMC1 200744Z 17010KT 25/21 A2999 RMK A01 T02520211  RH  078%=      5-min Rain = 0
KMC1 200745Z 16009KT 25/21 A2999 RMK A01 T02530211  RH  078%=      5-min Rain = 0
KMC1 200746Z 16008G14KT 25/21 A2999 RMK A01 T02530211  RH  077%=      5-min Rain = 0
KMC1 200747Z 15008G14KT 25/21 A2999 RMK A01 T02530211  RH  077%=      5-min Rain = 0
KMC1 200748Z 16007G12KT 25/21 A2999 RMK A01 T02530211  RH  078%=      5-min Rain = 0
KMC1 200749Z 15011G17KT 25/21 A2999 RMK A01 T02520211  RH  078%=      5-min Rain = 0
KMC1 200750Z 16007KT 25/21 A2999 RMK A01 T02530211  RH  078%=      5-min Rain = 0
KMC1 200751Z 16008KT 25/21 A2999 RMK A01 T02520211  RH  078%=      5-min Rain = 0
KMC1 200752Z 16008KT 25/21 A2999 RMK A01 T02520211  RH  078%=      5-min Rain = 0
KMC1 200753Z 16008KT 25/21 A2999 RMK A01 T02520211  RH  078%=      5-min Rain = 0
KMC1 200754Z 15008KT 25/21 A2999 RMK A01 T02520211  RH  078%=      5-min Rain = 0
KMC1 200755Z 15006G11KT 25/21 A2999 RMK A01 T02520211  RH  078%=      5-min Rain = 0
KMC1 200756Z 15006KT 25/21 A2999 RMK A01 T02520211  RH  078%=      5-min Rain = 0
KMC1 200757Z 15004KT 25/21 A2999 RMK A01 T02520211  RH  078%=      5-min Rain = 0
KMC1 200758Z 16007G13KT 25/21 A2999 RMK A01 T02510211  RH  078%=      5-min Rain = 0
KMC1 200759Z 16008KT 25/21 A2999 RMK A01 T02500211  RH  079%=      5-min Rain = 0
KMC1 200800Z 15008KT 25/21 A2999 RMK A01 T02500211  RH  079%=      5-min Rain = 0
KMC1 200801Z 15008KT 25/21 A2999 RMK A01 T02500211  RH  079%=      5-min Rain = 0
KMC1 200802Z 14007KT 25/21 A2999 RMK A01 T02500211  RH  079%=      5-min Rain = 0
KMC1 200803Z 16007G12KT 25/21 A2999 RMK A01 T02500210  RH  079%=      5-min Rain = 0
KMC1 200804Z 16006KT 25/21 A2999 RMK A01 T02500210  RH  079%=      5-min Rain = 0
KMC1 200805Z 15006KT 25/21 A2999 RMK A01 T02500211  RH  079%=      5-min Rain = 0
KMC1 200806Z 15009KT 25/21 A2999 RMK A01 T02500211  RH  079%=      5-min Rain = 0
KMC1 200807Z 16007KT 25/21 A2999 RMK A01 T02500211  RH  079%=      5-min Rain = 0
KMC1 200808Z 16007KT 25/21 A2999 RMK A01 T02500211  RH  079%=      5-min Rain = 0
KMC1 200809Z 15006KT 25/21 A2999 RMK A01 T02500211  RH  079%=      5-min Rain = 0
KMC1 200810Z 15008KT 25/21 A2999 RMK A01 T02500210  RH  079%=      5-min Rain = 0
KMC1 200811Z 15008KT 25/21 A2999 RMK A01 T02500211  RH  079%=      5-min Rain = 0
KMC1 200812Z 15007KT 25/21 A2999 RMK A01 T02500211  RH  079%=      5-min Rain = 0
KMC1 200813Z 14005KT 25/21 A2999 RMK A01 T02500211  RH  079%=      5-min Rain = 0
KMC1 200814Z 16005G12KT 25/21 A2999 RMK A01 T02490211  RH  079%=      5-min Rain = 0
KMC1 200815Z 16006KT 25/21 A2999 RMK A01 T02490210  RH  079%=      5-min Rain = 0
KMC1 200816Z 15006KT 25/21 A2999 RMK A01 T02490211  RH  079%=      5-min Rain = 0
KMC1 200817Z 15006KT 25/21 A2999 RMK A01 T02480211  RH  080%=      5-min Rain = 0
KMC1 200818Z 16006KT 25/21 A2999 RMK A01 T02480211  RH  080%=      5-min Rain = 0
KMC1 200819Z 15005KT 25/21 A2999 RMK A01 T02480211  RH  080%=      5-min Rain = 0
KMC1 200820Z 15004KT 25/21 A2999 RMK A01 T02480211  RH  080%=      5-min Rain = 0
KMC1 200821Z 15006KT 25/21 A2999 RMK A01 T02470211  RH  080%=      5-min Rain = 0
KMC1 200822Z 15006KT 25/21 A2999 RMK A01 T02470211  RH  080%=      5-min Rain = 0
KMC1 200823Z 15007KT 25/21 A2999 RMK A01 T02470211  RH  080%=      5-min Rain = 0
KMC1 200824Z 15006KT 25/21 A2999 RMK A01 T02470211  RH  080%=      5-min Rain = 0
KMC1 200825Z 16006KT 25/21 A2999 RMK A01 T02470211  RH  080%=      5-min Rain = 0
KMC1 200826Z 14007KT 25/21 A2999 RMK A01 T02470211  RH  081%=      5-min Rain = 0
KMC1 200827Z 15006KT 25/21 A2999 RMK A01 T02470211  RH  081%=      5-min Rain = 0
KMC1 200828Z 15006KT 25/21 A2999 RMK A01 T02460211  RH  081%=      5-min Rain = 0
KMC1 200829Z 15007KT 25/21 A2999 RMK A01 T02460211  RH  081%=      5-min Rain = 0
KMC1 200830Z 15006KT 25/21 A2999 RMK A01 T02460211  RH  081%=      5-min Rain = 0
KMC1 200831Z 14011KT 25/21 A2999 RMK A01 T02450211  RH  081%=      5-min Rain = 0
KMC1 200832Z 15007KT 25/21 A2998 RMK A01 T02450211  RH  081%=      5-min Rain = 0
KMC1 200833Z 15008KT 25/21 A2998 RMK A01 T02450211  RH  081%=      5-min Rain = 0
KMC1 200834Z 15007KT 25/21 A2998 RMK A01 T02450210  RH  081%=      5-min Rain = 0
KMC1 200835Z 15005KT 25/21 A2998 RMK A01 T02450210  RH  081%=      5-min Rain = 0
KMC1 200836Z 15005G10KT 25/21 A2998 RMK A01 T02450211  RH  081%=      5-min Rain = 0
KMC1 200837Z 15009G14KT 24/21 A2998 RMK A01 T02440210  RH  081%=      5-min Rain = 0
KMC1 200838Z 15006KT 24/21 A2998 RMK A01 T02440210  RH  081%=      5-min Rain = 0
KMC1 200839Z 16005KT 24/21 A2998 RMK A01 T02440210  RH  081%=      5-min Rain = 0
KMC1 200840Z 16006KT 24/21 A2998 RMK A01 T02440210  RH  081%=      5-min Rain = 0
KMC1 200841Z 15005KT 24/21 A2998 RMK A01 T02440210  RH  082%=      5-min Rain = 0
KMC1 200842Z 15009KT 24/21 A2998 RMK A01 T02430210  RH  082%=      5-min Rain = 0
KMC1 200843Z 14009G14KT 24/21 A2998 RMK A01 T02430210  RH  082%=      5-min Rain = 0
KMC1 200844Z 16006KT 24/21 A2998 RMK A01 T02430210  RH  082%=      5-min Rain = 0
KMC1 200845Z 15008KT 24/21 A2998 RMK A01 T02430209  RH  082%=      5-min Rain = 0
KMC1 200846Z 15008G13KT 24/21 A2998 RMK A01 T02430209  RH  081%=      5-min Rain = 0
KMC1 200847Z 15008KT 24/21 A2998 RMK A01 T02430209  RH  081%=      5-min Rain = 0
KMC1 200848Z 15006KT 24/21 A2998 RMK A01 T02430209  RH  081%=      5-min Rain = 0
KMC1 200849Z 15008G14KT 24/21 A2998 RMK A01 T02430209  RH  081%=      5-min Rain = 0
KMC1 200850Z 15009KT 24/21 A2998 RMK A01 T02430210  RH  082%=      5-min Rain = 0
KMC1 200851Z 16009KT 24/21 A2998 RMK A01 T02430210  RH  082%=      5-min Rain = 0
KMC1 200852Z 15007G12KT 24/21 A2998 RMK A01 T02430210  RH  082%=      5-min Rain = 0
KMC1 200853Z 15006KT 24/21 A2998 RMK A01 T02430210  RH  082%=      5-min Rain = 0
KMC1 200854Z 15006KT 24/21 A2998 RMK A01 T02430210  RH  082%=      5-min Rain = 0
KMC1 200855Z 15011KT 24/21 A2998 RMK A01 T02420210  RH  082%=      5-min Rain = 0
KMC1 200856Z 15009KT 24/21 A2998 RMK A01 T02420210  RH  082%=      5-min Rain = 0
KMC1 200857Z 15008KT 24/21 A2998 RMK A01 T02420210  RH  082%=      5-min Rain = 0
KMC1 200858Z 15005KT 24/21 A2998 RMK A01 T02420210  RH  082%=      5-min Rain = 0
KMC1 200859Z 15009KT 24/21 A2998 RMK A01 T02410209  RH  082%=      5-min Rain = 0
KMC1 200900Z 15008KT 24/21 A2998 RMK A01 T02410209  RH  083%=      5-min Rain = 0
KMC1 200901Z 15008KT 24/21 A2998 RMK A01 T02410210  RH  083%=      5-min Rain = 0
KMC1 200902Z 16007KT 24/21 A2998 RMK A01 T02410210  RH  083%=      5-min Rain = 0
KMC1 200903Z 16008KT 24/21 A2998 RMK A01 T02410210  RH  083%=      5-min Rain = 0
KMC1 200904Z 15010G15KT 24/21 A2998 RMK A01 T02400209  RH  083%=      5-min Rain = 0
KMC1 200905Z 15005KT 24/21 A2998 RMK A01 T02400210  RH  083%=      5-min Rain = 0
KMC1 200906Z 16009KT 24/21 A2998 RMK A01 T02400210  RH  083%=      5-min Rain = 0
KMC1 200907Z 16008KT 24/21 A2998 RMK A01 T02400209  RH  083%=      5-min Rain = 0
KMC1 200908Z 16007KT 24/21 A2997 RMK A01 T02400209  RH  083%=      5-min Rain = 0
KMC1 200909Z 16008KT 24/21 A2997 RMK A01 T02390209  RH  083%=      5-min Rain = 0
KMC1 200910Z 16006KT 24/21 A2997 RMK A01 T02390209  RH  083%=      5-min Rain = 0
KMC1 200911Z 15007KT 24/21 A2997 RMK A01 T02390209  RH  083%=      5-min Rain = 0
KMC1 200912Z 15007KT 24/21 A2997 RMK A01 T02380209  RH  084%=      5-min Rain = 0
KMC1 200913Z 16007KT 24/21 A2997 RMK A01 T02380209  RH  084%=      5-min Rain = 0
KMC1 200914Z 16007KT 24/21 A2997 RMK A01 T02380209  RH  084%=      5-min Rain = 0
KMC1 200915Z 15009KT 24/21 A2998 RMK A01 T02380209  RH  084%=      5-min Rain = 0
KMC1 200916Z 16008KT 24/21 A2998 RMK A01 T02380209  RH  084%=      5-min Rain = 0
KMC1 200917Z 16008KT 24/21 A2998 RMK A01 T02380209  RH  084%=      5-min Rain = 0
KMC1 200918Z 15006KT 24/21 A2998 RMK A01 T02380208  RH  084%=      5-min Rain = 0
KMC1 200919Z 15008G14KT 24/21 A2998 RMK A01 T02380208  RH  084%=      5-min Rain = 0
KMC1 200920Z 15005KT 24/21 A2998 RMK A01 T02370208  RH  084%=      5-min Rain = 0
KMC1 200921Z 15006KT 24/21 A2998 RMK A01 T02370208  RH  084%=      5-min Rain = 0
KMC1 200922Z 15008KT 24/21 A2998 RMK A01 T02370207  RH  084%=      5-min Rain = 0
KMC1 200923Z 15010KT 24/21 A2998 RMK A01 T02370207  RH  084%=      5-min Rain = 0
KMC1 200924Z 15008KT 24/21 A2998 RMK A01 T02360207  RH  083%=      5-min Rain = 0
KMC1 200925Z 15006KT 24/21 A2998 RMK A01 T02360207  RH  083%=      5-min Rain = 0
KMC1 200926Z 16005KT 24/21 A2998 RMK A01 T02370207  RH  083%=      5-min Rain = 0
KMC1 200927Z 16007KT 24/21 A2998 RMK A01 T02360207  RH  084%=      5-min Rain = 0
KMC1 200928Z 15008KT 24/21 A2998 RMK A01 T02350207  RH  084%=      5-min Rain = 0
KMC1 200929Z 16008KT 24/21 A2998 RMK A01 T02350207  RH  084%=      5-min Rain = 0
KMC1 200930Z 16007G12KT 24/21 A2998 RMK A01 T02350207  RH  084%=      5-min Rain = 0
KMC1 200931Z 15008KT 24/21 A2998 RMK A01 T02350207  RH  084%=      5-min Rain = 0
KMC1 200932Z 16007G14KT 24/21 A2998 RMK A01 T02350206  RH  084%=      5-min Rain = 0
KMC1 200933Z 15007KT 24/21 A2998 RMK A01 T02350206  RH  084%=      5-min Rain = 0
KMC1 200934Z 15007KT 24/21 A2997 RMK A01 T02350206  RH  084%=      5-min Rain = 0
KMC1 200935Z 16007KT 24/21 A2997 RMK A01 T02350206  RH  084%=      5-min Rain = 0
KMC1 200936Z 16008KT 24/21 A2997 RMK A01 T02350206  RH  084%=      5-min Rain = 0
KMC1 200937Z 16007KT 23/21 A2997 RMK A01 T02340206  RH  084%=      5-min Rain = 0
KMC1 200938Z 16006G12KT 23/21 A2997 RMK A01 T02340206  RH  084%=      5-min Rain = 0
KMC1 200939Z 16007G13KT 23/21 A2997 RMK A01 T02340206  RH  084%=      5-min Rain = 0
KMC1 200940Z 16007KT 23/21 A2997 RMK A01 T02340206  RH  084%=      5-min Rain = 0
KMC1 200941Z 15005KT 23/21 A2997 RMK A01 T02330205  RH  084%=      5-min Rain = 0
KMC1 200942Z 15006KT 23/21 A2997 RMK A01 T02320205  RH  085%=      5-min Rain = 0
KMC1 200943Z 15007KT 23/21 A2997 RMK A01 T02320205  RH  085%=      5-min Rain = 0
KMC1 200944Z 16008KT 23/21 A2997 RMK A01 T02320205  RH  085%=      5-min Rain = 0
KMC1 200945Z 17007KT 23/21 A2997 RMK A01 T02310205  RH  085%=      5-min Rain = 0
KMC1 200946Z 15006KT 23/20 A2997 RMK A01 T02320204  RH  085%=      5-min Rain = 0
KMC1 200947Z 16006KT 23/20 A2997 RMK A01 T02310204  RH  085%=      5-min Rain = 0
KMC1 200948Z 16005KT 23/20 A2997 RMK A01 T02310204  RH  085%=      5-min Rain = 0
KMC1 200949Z 15007KT 23/20 A2997 RMK A01 T02310204  RH  085%=      5-min Rain = 0
KMC1 200950Z 16009KT 23/20 A2997 RMK A01 T02310204  RH  085%=      5-min Rain = 0
KMC1 200951Z 15007KT 23/20 A2997 RMK A01 T02310204  RH  085%=      5-min Rain = 0
KMC1 200952Z 15005KT 23/20 A2997 RMK A01 T02300204  RH  085%=      5-min Rain = 0
KMC1 200953Z 16007KT 23/20 A2997 RMK A01 T02300204  RH  085%=      5-min Rain = 0
KMC1 200954Z 15008KT 23/20 A2997 RMK A01 T02300204  RH  085%=      5-min Rain = 0
KMC1 200955Z 15007KT 23/20 A2997 RMK A01 T02300204  RH  085%=      5-min Rain = 0
KMC1 200956Z 16008KT 23/20 A2997 RMK A01 T02300204  RH  085%=      5-min Rain = 0
KMC1 200957Z 16006KT 23/20 A2997 RMK A01 T02300203  RH  085%=      5-min Rain = 0
KMC1 200958Z 16007KT 23/20 A2997 RMK A01 T02300203  RH  085%=      5-min Rain = 0
KMC1 200959Z 16005KT 23/20 A2997 RMK A01 T02300203  RH  085%=      5-min Rain = 0
KMC1 201000Z 15005KT 23/20 A2997 RMK A01 T02290202  RH  085%=      5-min Rain = 0
KMC1 201001Z 16007KT 23/20 A2997 RMK A01 T02290203  RH  085%=      5-min Rain = 0
KMC1 201002Z 16007KT 23/20 A2997 RMK A01 T02290202  RH  085%=      5-min Rain = 0
KMC1 201003Z 16005KT 23/20 A2997 RMK A01 T02290202  RH  085%=      5-min Rain = 0
KMC1 201004Z 16004KT 23/20 A2997 RMK A01 T02290202  RH  085%=      5-min Rain = 0
KMC1 201005Z 16005G10KT 23/20 A2997 RMK A01 T02290202  RH  085%=      5-min Rain = 0
KMC1 201006Z 17007KT 23/20 A2997 RMK A01 T02280202  RH  085%=      5-min Rain = 0
KMC1 201007Z 16007KT 23/20 A2997 RMK A01 T02280202  RH  085%=      5-min Rain = 0
KMC1 201008Z 16008KT 23/20 A2997 RMK A01 T02270202  RH  085%=      5-min Rain = 0
KMC1 201009Z 17005KT 23/20 A2997 RMK A01 T02270202  RH  085%=      5-min Rain = 0
KMC1 201010Z 17007KT 23/20 A2997 RMK A01 T02270201  RH  085%=      5-min Rain = 0
KMC1 201011Z 16005KT 23/20 A2997 RMK A01 T02270202  RH  085%=      5-min Rain = 0
KMC1 201012Z 16005KT 23/20 A2997 RMK A01 T02270201  RH  085%=      5-min Rain = 0
KMC1 201013Z 15007KT 23/20 A2997 RMK A01 T02270201  RH  085%=      5-min Rain = 0
KMC1 201014Z 16006KT 23/20 A2997 RMK A01 T02270201  RH  086%=      5-min Rain = 0
KMC1 201015Z 16006KT 23/20 A2997 RMK A01 T02260201  RH  086%=      5-min Rain = 0
KMC1 201016Z 16007KT 23/20 A2997 RMK A01 T02260201  RH  086%=      5-min Rain = 0
KMC1 201017Z 16008KT 23/20 A2997 RMK A01 T02260201  RH  086%=      5-min Rain = 0
KMC1 201018Z 16007KT 23/20 A2997 RMK A01 T02260200  RH  085%=      5-min Rain = 0
KMC1 201019Z 16005KT 23/20 A2997 RMK A01 T02260200  RH  085%=      5-min Rain = 0
KMC1 201020Z 15004KT 23/20 A2997 RMK A01 T02260200  RH  085%=      5-min Rain = 0
KMC1 201021Z 16006KT 23/20 A2997 RMK A01 T02260200  RH  086%=      5-min Rain = 0
KMC1 201022Z 15007G12KT 23/20 A2997 RMK A01 T02250200  RH  086%=      5-min Rain = 0
KMC1 201023Z 15005KT 23/20 A2997 RMK A01 T02250200  RH  086%=      5-min Rain = 0
KMC1 201024Z 16006KT 23/20 A2997 RMK A01 T02250200  RH  086%=      5-min Rain = 0
KMC1 201025Z 15006KT 23/20 A2997 RMK A01 T02250200  RH  085%=      5-min Rain = 0
KMC1 201026Z 16005KT 23/20 A2997 RMK A01 T02250200  RH  085%=      5-min Rain = 0
KMC1 201027Z 16006KT 23/20 A2997 RMK A01 T02250199  RH  086%=      5-min Rain = 0
KMC1 201028Z 16007KT 23/20 A2997 RMK A01 T02250200  RH  086%=      5-min Rain = 0
KMC1 201029Z 16005KT 22/20 A2997 RMK A01 T02240199  RH  086%=      5-min Rain = 0
KMC1 201030Z 15006KT 22/20 A2997 RMK A01 T02240199  RH  086%=      5-min Rain = 0
KMC1 201031Z 15006KT 22/20 A2997 RMK A01 T02240199  RH  086%=      5-min Rain = 0
KMC1 201032Z 16006KT 22/20 A2997 RMK A01 T02240199  RH  086%=      5-min Rain = 0
KMC1 201033Z 16005KT 22/20 A2997 RMK A01 T02240199  RH  086%=      5-min Rain = 0
KMC1 201034Z 15005KT 22/20 A2997 RMK A01 T02240198  RH  086%=      5-min Rain = 0
KMC1 201035Z 15005KT 22/20 A2997 RMK A01 T02240198  RH  086%=      5-min Rain = 0
KMC1 201036Z 15007KT 22/20 A2997 RMK A01 T02230198  RH  086%=      5-min Rain = 0
KMC1 201037Z 15006KT 22/20 A2997 RMK A01 T02230198  RH  086%=      5-min Rain = 0
KMC1 201038Z 15008KT 22/20 A2997 RMK A01 T02230198  RH  086%=      5-min Rain = 0
KMC1 201039Z 15006G11KT 22/20 A2997 RMK A01 T02230198  RH  086%=      5-min Rain = 0
KMC1 201040Z 14009KT 22/20 A2997 RMK A01 T02230198  RH  086%=      5-min Rain = 0
KMC1 201041Z 15007KT 22/20 A2997 RMK A01 T02230198  RH  086%=      5-min Rain = 0
KMC1 201042Z 15007KT 22/20 A2997 RMK A01 T02230198  RH  086%=      5-min Rain = 0
KMC1 201043Z 15006KT 22/20 A2997 RMK A01 T02230198  RH  086%=      5-min Rain = 0
KMC1 201044Z 15005KT 22/20 A2997 RMK A01 T02230198  RH  086%=      5-min Rain = 0
KMC1 201045Z 14005KT 22/20 A2997 RMK A01 T02230198  RH  086%=      5-min Rain = 0
KMC1 201046Z 14006G11KT 22/20 A2997 RMK A01 T02220198  RH  086%=      5-min Rain = 0
KMC1 201047Z 14006KT 22/20 A2997 RMK A01 T02220197  RH  086%=      5-min Rain = 0
KMC1 201048Z 16005KT 22/20 A2997 RMK A01 T02220197  RH  086%=      5-min Rain = 0
KMC1 201049Z 15006KT 22/20 A2997 RMK A01 T02210197  RH  086%=      5-min Rain = 0
KMC1 201050Z 14005KT 22/20 A2997 RMK A01 T02210197  RH  086%=      5-min Rain = 0
KMC1 201051Z 16005KT 22/20 A2997 RMK A01 T02210197  RH  086%=      5-min Rain = 0
KMC1 201052Z 15004KT 22/20 A2997 RMK A01 T02210197  RH  086%=      5-min Rain = 0
KMC1 201053Z 15006G11KT 22/20 A2997 RMK A01 T02200197  RH  087%=      5-min Rain = 0
KMC1 201054Z 15006KT 22/20 A2997 RMK A01 T02210197  RH  087%=      5-min Rain = 0
KMC1 201055Z 16007KT 22/20 A2997 RMK A01 T02210197  RH  086%=      5-min Rain = 0
KMC1 201056Z 16006KT 22/20 A2997 RMK A01 T02210197  RH  087%=      5-min Rain = 0
KMC1 201057Z 14009KT 22/20 A2997 RMK A01 T02200197  RH  087%=      5-min Rain = 0
KMC1 201058Z 16004KT 22/20 A2997 RMK A01 T02200197  RH  086%=      5-min Rain = 0
KMC1 201059Z 14004KT 22/20 A2997 RMK A01 T02210197  RH  086%=      5-min Rain = 0
KMC1 201100Z 16005KT 22/20 A2997 RMK A01 T02200197  RH  087%=      5-min Rain = 0
KMC1 201101Z 15005KT 22/20 A2997 RMK A01 T02200197  RH  087%=      5-min Rain = 0
KMC1 201102Z 16005KT 22/20 A2997 RMK A01 T02200196  RH  087%=      5-min Rain = 0
KMC1 201103Z 17006KT 22/20 A2997 RMK A01 T02190197  RH  087%=      5-min Rain = 0
KMC1 201104Z 17006KT 22/20 A2997 RMK A01 T02190196  RH  087%=      5-min Rain = 0
KMC1 201105Z 16006KT 22/20 A2997 RMK A01 T02190196  RH  087%=      5-min Rain = 0
KMC1 201106Z 15006KT 22/20 A2997 RMK A01 T02190197  RH  087%=      5-min Rain = 0
KMC1 201107Z 15004KT 22/20 A2997 RMK A01 T02190197  RH  087%=      5-min Rain = 0
KMC1 201108Z 15006KT 22/20 A2997 RMK A01 T02190197  RH  087%=      5-min Rain = 0
KMC1 201109Z 16005KT 22/20 A2997 RMK A01 T02190196  RH  087%=      5-min Rain = 0
KMC1 201110Z 17008KT 22/20 A2997 RMK A01 T02180196  RH  087%=      5-min Rain = 0
KMC1 201111Z 15006KT 22/20 A2997 RMK A01 T02180196  RH  088%=      5-min Rain = 0
KMC1 201112Z 15005KT 22/20 A2997 RMK A01 T02180196  RH  087%=      5-min Rain = 0
KMC1 201113Z 15006KT 22/20 A2997 RMK A01 T02180196  RH  087%=      5-min Rain = 0
KMC1 201114Z 16005KT 22/20 A2997 RMK A01 T02180196  RH  087%=      5-min Rain = 0
KMC1 201115Z 16003KT 22/20 A2997 RMK A01 T02180196  RH  087%=      5-min Rain = 0
KMC1 201116Z 15006KT 22/20 A2997 RMK A01 T02170196  RH  088%=      5-min Rain = 0
KMC1 201117Z 16005KT 22/20 A2997 RMK A01 T02170196  RH  088%=      5-min Rain = 0
KMC1 201118Z 16007KT 22/20 A2997 RMK A01 T02170196  RH  088%=      5-min Rain = 0
KMC1 201119Z 16005KT 22/20 A2997 RMK A01 T02170196  RH  088%=      5-min Rain = 0
KMC1 201120Z 16007KT 22/20 A2997 RMK A01 T02170196  RH  088%=      5-min Rain = 0
KMC1 201121Z 15006KT 22/20 A2997 RMK A01 T02170196  RH  088%=      5-min Rain = 0
KMC1 201122Z 15004KT 22/20 A2997 RMK A01 T02170196  RH  088%=      5-min Rain = 0
KMC1 201123Z 16006KT 22/20 A2997 RMK A01 T02170196  RH  088%=      5-min Rain = 0
KMC1 201124Z 17006KT 22/20 A2997 RMK A01 T02170196  RH  088%=      5-min Rain = 0
KMC1 201125Z 17006KT 22/20 A2997 RMK A01 T02170196  RH  088%=      5-min Rain = 0
KMC1 201126Z 15004KT 22/20 A2997 RMK A01 T02160196  RH  088%=      5-min Rain = 0
KMC1 201127Z 17007KT 22/20 A2997 RMK A01 T02170196  RH  088%=      5-min Rain = 0
KMC1 201128Z 17007KT 22/20 A2997 RMK A01 T02170196  RH  088%=      5-min Rain = 0
KMC1 201129Z 16006KT 22/20 A2997 RMK A01 T02160196  RH  088%=      5-min Rain = 0
KMC1 201130Z 17006KT 22/20 A2997 RMK A01 T02160196  RH  088%=      5-min Rain = 0
KMC1 201131Z 16007KT 22/20 A2997 RMK A01 T02160196  RH  088%=      5-min Rain = 0
KMC1 201132Z 16007KT 22/20 A2997 RMK A01 T02150196  RH  088%=      5-min Rain = 0
KMC1 201133Z 16006G11KT 22/20 A2997 RMK A01 T02150196  RH  089%=      5-min Rain = 0
KMC1 201134Z 17007G12KT 22/20 A2997 RMK A01 T02160196  RH  089%=      5-min Rain = 0
KMC1 201135Z 17008KT 22/20 A2997 RMK A01 T02160196  RH  089%=      5-min Rain = 0
KMC1 201136Z 17007KT 22/20 A2997 RMK A01 T02160196  RH  088%=      5-min Rain = 0
KMC1 201137Z 17007KT 22/20 A2997 RMK A01 T02160196  RH  088%=      5-min Rain = 0
KMC1 201138Z 17008KT 22/20 A2997 RMK A01 T02160196  RH  088%=      5-min Rain = 0
KMC1 201139Z 16006KT 22/20 A2997 RMK A01 T02160196  RH  088%=      5-min Rain = 0
KMC1 201140Z 17006KT 22/20 A2997 RMK A01 T02160196  RH  088%=      5-min Rain = 0
KMC1 201141Z 17007KT 22/20 A2997 RMK A01 T02160196  RH  088%=      5-min Rain = 0
KMC1 201142Z 16006KT 22/20 A2997 RMK A01 T02150196  RH  089%=      5-min Rain = 0
KMC1 201143Z 17008KT 22/20 A2997 RMK A01 T02160196  RH  089%=      5-min Rain = 0
KMC1 201144Z 17009KT 22/20 A2997 RMK A01 T02150196  RH  089%=      5-min Rain = 0
KMC1 201145Z 16005KT 22/20 A2997 RMK A01 T02150196  RH  089%=      5-min Rain = 0
KMC1 201146Z 17007KT 22/20 A2997 RMK A01 T02150196  RH  089%=      5-min Rain = 0
KMC1 201147Z 17006KT 22/20 A2997 RMK A01 T02150196  RH  089%=      5-min Rain = 0
KMC1 201148Z 16006KT 22/20 A2997 RMK A01 T02150196  RH  089%=      5-min Rain = 0
KMC1 201149Z 16007KT 22/20 A2997 RMK A01 T02150196  RH  089%=      5-min Rain = 0
KMC1 201150Z 17005KT 22/20 A2997 RMK A01 T02150196  RH  089%=      5-min Rain = 0
KMC1 201151Z 17006KT 22/20 A2997 RMK A01 T02150196  RH  089%=      5-min Rain = 0
KMC1 201152Z 17007KT 21/20 A2997 RMK A01 T02140196  RH  089%=      5-min Rain = 0
KMC1 201153Z 16004KT 21/20 A2997 RMK A01 T02140196  RH  090%=      5-min Rain = 0
KMC1 201154Z 16006KT 21/20 A2997 RMK A01 T02140196  RH  090%=      5-min Rain = 0
KMC1 201155Z 17005G10KT 21/20 A2997 RMK A01 T02140196  RH  090%=      5-min Rain = 0
KMC1 201156Z 16005KT 21/20 A2997 RMK A01 T02130196  RH  090%=      5-min Rain = 0
KMC1 201157Z 17005KT 21/20 A2997 RMK A01 T02130196  RH  090%=      5-min Rain = 0
KMC1 201158Z 17006KT 21/20 A2997 RMK A01 T02130196  RH  090%=      5-min Rain = 0
KMC1 201159Z 16007KT 21/20 A2997 RMK A01 T02130197  RH  090%=      5-min Rain = 0
KMC1 201200Z 16007G12KT 21/20 A2997 RMK A01 T02130197  RH  090%=      5-min Rain = 0
KMC1 201201Z 16005KT 21/20 A2997 RMK A01 T02130196  RH  090%=      5-min Rain = 0
KMC1 201202Z 17005KT 21/20 A2997 RMK A01 T02130196  RH  090%=      5-min Rain = 0
KMC1 201203Z 16004KT 21/20 A2997 RMK A01 T02130197  RH  090%=      5-min Rain = 0
KMC1 201204Z 15005KT 21/20 A2997 RMK A01 T02130196  RH  090%=      5-min Rain = 0
KMC1 201205Z 16005KT 21/20 A2997 RMK A01 T02130197  RH  091%=      5-min Rain = 0
KMC1 201206Z 16006KT 21/20 A2997 RMK A01 T02130197  RH  091%=      5-min Rain = 0
KMC1 201207Z 15005KT 21/20 A2997 RMK A01 T02130197  RH  091%=      5-min Rain = 0
KMC1 201208Z 16005KT 21/20 A2997 RMK A01 T02130197  RH  091%=      5-min Rain = 0
KMC1 201209Z 17004KT 21/20 A2998 RMK A01 T02130197  RH  091%=      5-min Rain = 0
KMC1 201210Z 17004KT 21/20 A2998 RMK A01 T02130196  RH  090%=      5-min Rain = 0
KMC1 201211Z 16004KT 21/20 A2998 RMK A01 T02130197  RH  090%=      5-min Rain = 0
KMC1 201212Z 16004KT 21/20 A2998 RMK A01 T02130197  RH  091%=      5-min Rain = 0
KMC1 201213Z 16004KT 21/20 A2998 RMK A01 T02130197  RH  091%=      5-min Rain = 0
KMC1 201214Z 16004KT 21/20 A2998 RMK A01 T02130197  RH  091%=      5-min Rain = 0
KMC1 201215Z 16004KT 21/20 A2998 RMK A01 T02130197  RH  091%=      5-min Rain = 0
KMC1 201216Z 16006KT 21/20 A2998 RMK A01 T02130197  RH  090%=      5-min Rain = 0
KMC1 201217Z 17005KT 21/20 A2998 RMK A01 T02130197  RH  090%=      5-min Rain = 0
KMC1 201218Z 17004KT 21/20 A2998 RMK A01 T02140197  RH  090%=      5-min Rain = 0
KMC1 201219Z 18004KT 21/20 A2998 RMK A01 T02140197  RH  090%=      5-min Rain = 0
KMC1 201220Z 19004KT 21/20 A2998 RMK A01 T02140197  RH  090%=      5-min Rain = 0
KMC1 201221Z 17005KT 21/20 A2998 RMK A01 T02140198  RH  090%=      5-min Rain = 0
KMC1 201222Z 18005KT 21/20 A2998 RMK A01 T02140198  RH  090%=      5-min Rain = 0
KMC1 201223Z 19004KT 21/20 A2998 RMK A01 T02140198  RH  090%=      5-min Rain = 0
KMC1 201224Z 17004KT 22/20 A2998 RMK A01 T02150198  RH  090%=      5-min Rain = 0
KMC1 201225Z 18005KT 22/20 A2998 RMK A01 T02150198  RH  090%=      5-min Rain = 0
KMC1 201226Z 17004KT 22/20 A2998 RMK A01 T02150198  RH  090%=      5-min Rain = 0
KMC1 201227Z 17005KT 22/20 A2998 RMK A01 T02150197  RH  090%=      5-min Rain = 0
KMC1 201228Z 16004KT 22/20 A2998 RMK A01 T02150198  RH  090%=      5-min Rain = 0
KMC1 201229Z 17004KT 22/20 A2998 RMK A01 T02150198  RH  090%=      5-min Rain = 0
KMC1 201230Z 18004KT 22/20 A2998 RMK A01 T02150198  RH  090%=      5-min Rain = 0
KMC1 201231Z 18005KT 22/20 A2998 RMK A01 T02150198  RH  090%=      5-min Rain = 0
KMC1 201232Z 18004KT 22/20 A2998 RMK A01 T02150198  RH  090%=      5-min Rain = 0
KMC1 201233Z 17004KT 22/20 A2998 RMK A01 T02150198  RH  090%=      5-min Rain = 0
KMC1 201234Z 17004KT 22/20 A2998 RMK A01 T02150198  RH  090%=      5-min Rain = 0
KMC1 201235Z 18005KT 22/20 A2998 RMK A01 T02160199  RH  090%=      5-min Rain = 0
KMC1 201236Z 18004KT 22/20 A2998 RMK A01 T02160198  RH  090%=      5-min Rain = 0
KMC1 201237Z 17006KT 22/20 A2998 RMK A01 T02150198  RH  090%=      5-min Rain = 0
KMC1 201238Z 18006KT 22/20 A2998 RMK A01 T02150198  RH  090%=      5-min Rain = 0
KMC1 201239Z 19004KT 22/20 A2998 RMK A01 T02160199  RH  090%=      5-min Rain = 0
KMC1 201240Z 18005KT 22/20 A2998 RMK A01 T02160199  RH  090%=      5-min Rain = 0
KMC1 201241Z 17005KT 22/20 A2998 RMK A01 T02160199  RH  090%=      5-min Rain = 0
KMC1 201242Z 18004KT 22/20 A2999 RMK A01 T02160199  RH  090%=      5-min Rain = 0
KMC1 201243Z 18003KT 22/20 A2999 RMK A01 T02160199  RH  090%=      5-min Rain = 0
KMC1 201244Z 17003KT 22/20 A2999 RMK A01 T02170199  RH  090%=      5-min Rain = 0
KMC1 201245Z 16004KT 22/20 A2999 RMK A01 T02170199  RH  090%=      5-min Rain = 0
KMC1 201246Z 18005KT 22/20 A2999 RMK A01 T02180200  RH  090%=      5-min Rain = 0
KMC1 201247Z 18003KT 22/20 A2999 RMK A01 T02180200  RH  089%=      5-min Rain = 0
KMC1 201248Z 18005KT 22/20 A2999 RMK A01 T02180200  RH  089%=      5-min Rain = 0
KMC1 201249Z 17005KT 22/20 A2999 RMK A01 T02180200  RH  089%=      5-min Rain = 0
KMC1 201250Z 17006KT 22/20 A2999 RMK A01 T02190200  RH  089%=      5-min Rain = 0
KMC1 201251Z 17006KT 22/20 A2999 RMK A01 T02190200  RH  089%=      5-min Rain = 0
KMC1 201252Z 17005KT 22/20 A2999 RMK A01 T02190200  RH  089%=      5-min Rain = 0
KMC1 201253Z 18007KT 22/20 A2999 RMK A01 T02190200  RH  089%=      5-min Rain = 0
KMC1 201254Z 18006KT 22/20 A2999 RMK A01 T02200200  RH  088%=      5-min Rain = 0
KMC1 201255Z 18005KT 22/20 A2999 RMK A01 T02200200  RH  088%=      5-min Rain = 0
KMC1 201256Z 17006KT 22/20 A2999 RMK A01 T02210201  RH  088%=      5-min Rain = 0
KMC1 201257Z 17005KT 22/20 A2999 RMK A01 T02210201  RH  088%=      5-min Rain = 0
KMC1 201258Z 17007KT 22/20 A2999 RMK A01 T02210201  RH  088%=      5-min Rain = 0
KMC1 201259Z 15004KT 22/20 A2999 RMK A01 T02220201  RH  088%=      5-min Rain = 0
KMC1 201300Z 18006KT 22/20 A2999 RMK A01 T02220201  RH  088%=      5-min Rain = 0
KMC1 201301Z 17005KT 22/20 A2999 RMK A01 T02220201  RH  088%=      5-min Rain = 0
KMC1 201302Z 16005KT 22/20 A2999 RMK A01 T02220201  RH  088%=      5-min Rain = 0
KMC1 201303Z 17008KT 22/20 A2999 RMK A01 T02220201  RH  088%=      5-min Rain = 0
KMC1 201304Z 16008KT 22/20 A2999 RMK A01 T02220201  RH  088%=      5-min Rain = 0
KMC1 201305Z 16007KT 22/20 A30 RMK A01 T02220201  RH  088%=      5-min Rain = 0
KMC1 201306Z 16006KT 22/20 A30 RMK A01 T02220201  RH  088%=      5-min Rain = 0
KMC1 201307Z 16008KT 22/20 A30 RMK A01 T02230201  RH  088%=      5-min Rain = 0
KMC1 201308Z 17009KT 22/20 A30 RMK A01 T02230201  RH  087%=      5-min Rain = 0
KMC1 201309Z 17007KT 22/20 A30 RMK A01 T02230201  RH  087%=      5-min Rain = 0
KMC1 201310Z 17007KT 22/20 A30 RMK A01 T02230201  RH  087%=      5-min Rain = 0
KMC1 201311Z 17004KT 22/20 A30 RMK A01 T02240201  RH  087%=      5-min Rain = 0
KMC1 201312Z 17004KT 22/20 A30 RMK A01 T02240202  RH  087%=      5-min Rain = 0
KMC1 201313Z 18006KT 23/20 A30 RMK A01 T02250202  RH  087%=      5-min Rain = 0
KMC1 201314Z 17006KT 23/20 A30 RMK A01 T02250202  RH  087%=      5-min Rain = 0
KMC1 201315Z 17004KT 23/20 A30 RMK A01 T02250202  RH  087%=      5-min Rain = 0
KMC1 201316Z 18007KT 23/20 A30 RMK A01 T02260203  RH  087%=      5-min Rain = 0
KMC1 201317Z 18007KT 23/20 A30 RMK A01 T02260202  RH  086%=      5-min Rain = 0
KMC1 201318Z 17007KT 23/20 A30 RMK A01 T02260202  RH  086%=      5-min Rain = 0
KMC1 201319Z 16008KT 23/20 A30 RMK A01 T02260202  RH  086%=      5-min Rain = 0
KMC1 201320Z 16006KT 23/20 A30 RMK A01 T02270202  RH  086%=      5-min Rain = 0
KMC1 201321Z 17006KT 23/20 A30 RMK A01 T02270202  RH  086%=      5-min Rain = 0
KMC1 201322Z 16007KT 23/20 A30 RMK A01 T02270202  RH  086%=      5-min Rain = 0
KMC1 201323Z 16009KT 23/20 A30 RMK A01 T02270202  RH  086%=      5-min Rain = 0
KMC1 201324Z 17007KT 23/20 A30 RMK A01 T02280202  RH  085%=      5-min Rain = 0
KMC1 201325Z 16010KT 23/20 A30 RMK A01 T02290202  RH  085%=      5-min Rain = 0
KMC1 201326Z 17009KT 23/20 A30 RMK A01 T02290202  RH  085%=      5-min Rain = 0
KMC1 201327Z 16009KT 23/20 A30 RMK A01 T02290202  RH  085%=      5-min Rain = 0
KMC1 201328Z 17009KT 23/20 A30 RMK A01 T02290203  RH  085%=      5-min Rain = 0
KMC1 201329Z 16009KT 23/20 A30 RMK A01 T02290202  RH  085%=      5-min Rain = 0
KMC1 201330Z 14010KT 23/20 A3001 RMK A01 T02300203  RH  085%=      5-min Rain = 0
KMC1 201331Z 16010KT 23/20 A3001 RMK A01 T02300203  RH  084%=      5-min Rain = 0
KMC1 201332Z 16007KT 23/20 A3001 RMK A01 T02310202  RH  084%=      5-min Rain = 0
KMC1 201333Z 16007G12KT 23/20 A3001 RMK A01 T02310203  RH  084%=      5-min Rain = 0
KMC1 201334Z 16007KT 23/20 A3001 RMK A01 T02300203  RH  085%=      5-min Rain = 0
KMC1 201335Z 15007KT 23/20 A3001 RMK A01 T02300203  RH  085%=      5-min Rain = 0
KMC1 201336Z 17007KT 23/20 A3001 RMK A01 T02310202  RH  084%=      5-min Rain = 0
KMC1 201337Z 16006KT 23/20 A3001 RMK A01 T02320203  RH  084%=      5-min Rain = 0
KMC1 201338Z 17006KT 23/20 A3001 RMK A01 T02340204  RH  083%=      5-min Rain = 0
KMC1 201339Z 16008KT 24/20 A3001 RMK A01 T02350204  RH  082%=      5-min Rain = 0
KMC1 201340Z 16007KT 24/20 A3001 RMK A01 T02360203  RH  082%=      5-min Rain = 0
KMC1 201341Z 16005KT 24/20 A3001 RMK A01 T02360203  RH  082%=      5-min Rain = 0
KMC1 201342Z 16006KT 24/20 A3001 RMK A01 T02370204  RH  082%=      5-min Rain = 0
KMC1 201343Z 18008KT 24/20 A3001 RMK A01 T02380203  RH  081%=      5-min Rain = 0
KMC1 201344Z 18008KT 24/20 A3001 RMK A01 T02370203  RH  081%=      5-min Rain = 0
KMC1 201345Z 17008KT 24/20 A3001 RMK A01 T02360203  RH  082%=      5-min Rain = 0
KMC1 201346Z 17010KT 24/20 A3001 RMK A01 T02360203  RH  082%=      5-min Rain = 0
KMC1 201347Z 17009KT 24/20 A3001 RMK A01 T02350202  RH  082%=      5-min Rain = 0
KMC1 201348Z 15005KT 23/20 A3001 RMK A01 T02340203  RH  083%=      5-min Rain = 0
KMC1 201349Z 17007KT 24/20 A3001 RMK A01 T02350204  RH  083%=      5-min Rain = 0
KMC1 201350Z 15007KT 24/20 A3001 RMK A01 T02370203  RH  081%=      5-min Rain = 0
KMC1 201351Z 17005KT 24/20 A3001 RMK A01 T02380204  RH  081%=      5-min Rain = 0
KMC1 201352Z 16006KT 24/20 A3001 RMK A01 T02400204  RH  080%=      5-min Rain = 0
KMC1 201353Z 17008KT 24/20 A3001 RMK A01 T02410204  RH  080%=      5-min Rain = 0
KMC1 201354Z 15007KT 24/20 A3001 RMK A01 T02420204  RH  079%=      5-min Rain = 0
KMC1 201355Z 16007KT 24/21 A3001 RMK A01 T02420205  RH  080%=      5-min Rain = 0
KMC1 201356Z 16008KT 24/20 A3001 RMK A01 T02430204  RH  079%=      5-min Rain = 0
KMC1 201357Z 16006KT 24/20 A3001 RMK A01 T02430204  RH  079%=      5-min Rain = 0
KMC1 201358Z 17009KT 24/20 A3001 RMK A01 T02440204  RH  078%=      5-min Rain = 0
KMC1 201359Z 16008KT 24/20 A3001 RMK A01 T02440203  RH  078%=      5-min Rain = 0
KMC1 201400Z 17010KT 24/20 A3001 RMK A01 T02430203  RH  078%=      5-min Rain = 0
KMC1 201401Z 16008KT 24/20 A3001 RMK A01 T02430204  RH  079%=      5-min Rain = 0
KMC1 201402Z 17008KT 24/20 A3001 RMK A01 T02430204  RH  079%=      5-min Rain = 0
KMC1 201403Z 16008KT 24/20 A3001 RMK A01 T02430203  RH  078%=      5-min Rain = 0
KMC1 201404Z 17006KT 24/20 A3001 RMK A01 T02430203  RH  078%=      5-min Rain = 0
KMC1 201405Z 17009KT 24/20 A3002 RMK A01 T02440203  RH  078%=      5-min Rain = 0
KMC1 201406Z 16006KT 24/20 A3002 RMK A01 T02440203  RH  078%=      5-min Rain = 0
KMC1 201407Z 15007G12KT 25/20 A3002 RMK A01 T02450204  RH  078%=      5-min Rain = 0
KMC1 201408Z 17008KT 25/20 A3002 RMK A01 T02460204  RH  077%=      5-min Rain = 0
KMC1 201409Z 17009KT 25/20 A3002 RMK A01 T02480204  RH  077%=      5-min Rain = 0
KMC1 201410Z 17011KT 25/20 A3002 RMK A01 T02490203  RH  076%=      5-min Rain = 0
KMC1 201411Z 16010KT 25/20 A3002 RMK A01 T02480204  RH  076%=      5-min Rain = 0
KMC1 201412Z 17008KT 25/20 A3002 RMK A01 T02480204  RH  076%=      5-min Rain = 0
KMC1 201413Z 18009KT 25/20 A3002 RMK A01 T02480203  RH  076%=      5-min Rain = 0
KMC1 201414Z 17007KT 25/20 A3002 RMK A01 T02480204  RH  076%=      5-min Rain = 0
KMC1 201415Z 15006KT 25/20 A3002 RMK A01 T02490204  RH  076%=      5-min Rain = 0
KMC1 201416Z 15005KT 25/21 A3002 RMK A01 T02500205  RH  076%=      5-min Rain = 0
KMC1 201417Z 14008KT 25/21 A3002 RMK A01 T02520206  RH  076%=      5-min Rain = 0
KMC1 201418Z 16006KT 25/21 A3002 RMK A01 T02520206  RH  075%=      5-min Rain = 0
KMC1 201419Z 17007KT 25/21 A3002 RMK A01 T02530206  RH  075%=      5-min Rain = 0
KMC1 201420Z 15004KT 25/21 A3002 RMK A01 T02530206  RH  075%=      5-min Rain = 0
KMC1 201421Z 16003KT 26/21 A3002 RMK A01 T02560208  RH  075%=      5-min Rain = 0
KMC1 201422Z 17003KT 26/21 A3002 RMK A01 T02580208  RH  074%=      5-min Rain = 0
KMC1 201423Z 17007KT 26/21 A3002 RMK A01 T02610207  RH  072%=      5-min Rain = 0
KMC1 201424Z 17007KT 26/21 A3002 RMK A01 T02620206  RH  071%=      5-min Rain = 0
KMC1 201425Z 15007KT 26/21 A3002 RMK A01 T02600207  RH  072%=      5-min Rain = 0
KMC1 201426Z 15009KT 26/21 A3002 RMK A01 T02590207  RH  073%=      5-min Rain = 0
KMC1 201427Z 17008KT 26/21 A3002 RMK A01 T02600206  RH  072%=      5-min Rain = 0
KMC1 201428Z 16011KT 26/21 A3002 RMK A01 T02580205  RH  072%=      5-min Rain = 0
KMC1 201429Z 16008KT 26/21 A3002 RMK A01 T02580205  RH  073%=      5-min Rain = 0
KMC1 201430Z 17007KT 26/21 A3001 RMK A01 T02580205  RH  072%=      5-min Rain = 0
KMC1 201431Z 17008KT 26/21 A3001 RMK A01 T02580205  RH  073%=      5-min Rain = 0
KMC1 201432Z 16007KT 26/21 A3001 RMK A01 T02580206  RH  073%=      5-min Rain = 0
KMC1 201433Z 14007KT 26/21 A3001 RMK A01 T02590206  RH  073%=      5-min Rain = 0
KMC1 201434Z 16007KT 26/21 A3001 RMK A01 T02610207  RH  072%=      5-min Rain = 0
KMC1 201435Z 14008KT 26/21 A3001 RMK A01 T02620206  RH  071%=      5-min Rain = 0
KMC1 201436Z 15006G11KT 26/21 A3001 RMK A01 T02630207  RH  071%=      5-min Rain = 0
KMC1 201437Z 15007KT 26/21 A3001 RMK A01 T02640207  RH  071%=      5-min Rain = 0
KMC1 201438Z 15007KT 26/21 A3001 RMK A01 T02640208  RH  071%=      5-min Rain = 0
KMC1 201439Z 15010KT 27/21 A3001 RMK A01 T02650207  RH  070%=      5-min Rain = 0
KMC1 201440Z 15008KT 27/21 A3001 RMK A01 T02650206  RH  070%=      5-min Rain = 0
KMC1 201441Z 15010KT 27/21 A3001 RMK A01 T02650207  RH  070%=      5-min Rain = 0
KMC1 201442Z 16011KT 27/21 A3002 RMK A01 T02650206  RH  070%=      5-min Rain = 0
KMC1 201443Z 16010KT 26/21 A3002 RMK A01 T02640206  RH  070%=      5-min Rain = 0
KMC1 201444Z 17008G13KT 26/21 A3002 RMK A01 T02630206  RH  071%=      5-min Rain = 0
KMC1 201445Z 16009G14KT 26/21 A3002 RMK A01 T02630206  RH  071%=      5-min Rain = 0
KMC1 201446Z 16009G14KT 26/21 A3002 RMK A01 T02620205  RH  071%=      5-min Rain = 0
KMC1 201447Z 16010KT 26/21 A3002 RMK A01 T02620205  RH  071%=      5-min Rain = 0
KMC1 201448Z 16006KT 26/21 A3002 RMK A01 T02620206  RH  071%=      5-min Rain = 0
KMC1 201449Z 16009KT 26/21 A3002 RMK A01 T02640206  RH  071%=      5-min Rain = 0
KMC1 201450Z 17009KT 27/21 A3002 RMK A01 T02660206  RH  070%=      5-min Rain = 0
KMC1 201451Z 16009KT 27/21 A3002 RMK A01 T02660207  RH  070%=      5-min Rain = 0
KMC1 201452Z 16006KT 27/21 A3002 RMK A01 T02660207  RH  070%=      5-min Rain = 0
KMC1 201453Z 17006KT 27/21 A3002 RMK A01 T02670208  RH  070%=      5-min Rain = 0
KMC1 201454Z 16008KT 27/21 A3002 RMK A01 T02690208  RH  069%=      5-min Rain = 0
KMC1 201455Z 16007KT 27/21 A3002 RMK A01 T02690208  RH  069%=      5-min Rain = 0
KMC1 201456Z 16007KT 27/21 A3002 RMK A01 T02690209  RH  070%=      5-min Rain = 0
KMC1 201457Z 16007KT 27/21 A3002 RMK A01 T02700208  RH  069%=      5-min Rain = 0
KMC1 201458Z 15006KT 27/21 A3002 RMK A01 T02700209  RH  070%=      5-min Rain = 0
KMC1 201459Z 17007KT 27/21 A3002 RMK A01 T02720209  RH  068%=      5-min Rain = 0
KMC1 201500Z 16006KT 27/21 A3001 RMK A01 T02730208  RH  068%=      5-min Rain = 0
KMC1 201501Z 16009KT 27/21 A3001 RMK A01 T02740209  RH  068%=      5-min Rain = 0
KMC1 201502Z 18010KT 27/21 A3001 RMK A01 T02740207  RH  067%=      5-min Rain = 0
KMC1 201503Z 17010G15KT 27/21 A3001 RMK A01 T02730207  RH  067%=      5-min Rain = 0
KMC1 201504Z 16011KT 27/21 A3001 RMK A01 T02720207  RH  067%=      5-min Rain = 0
KMC1 201505Z 18012KT 27/21 A3001 RMK A01 T02710206  RH  067%=      5-min Rain = 0
KMC1 201506Z 17009KT 27/21 A3001 RMK A01 T02710207  RH  068%=      5-min Rain = 0
KMC1 201507Z 17009KT 27/21 A3001 RMK A01 T02720207  RH  068%=      5-min Rain = 0
KMC1 201508Z 17010KT 27/21 A3001 RMK A01 T02720207  RH  068%=      5-min Rain = 0
KMC1 201509Z 17008KT 27/21 A3001 RMK A01 T02720207  RH  068%=      5-min Rain = 0
KMC1 201510Z 15008KT 27/21 A3001 RMK A01 T02740209  RH  068%=      5-min Rain = 0
KMC1 201511Z 16008G15KT 28/21 A3001 RMK A01 T02770209  RH  067%=      5-min Rain = 0
KMC1 201512Z 16008KT 28/21 A3001 RMK A01 T02790209  RH  066%=      5-min Rain = 0
KMC1 201513Z 15010G15KT 28/21 A3001 RMK A01 T02800208  RH  065%=      5-min Rain = 0
KMC1 201514Z 17008KT 28/21 A3001 RMK A01 T02780208  RH  066%=      5-min Rain = 0
KMC1 201515Z 17008KT 28/21 A3001 RMK A01 T02770208  RH  066%=      5-min Rain = 0
KMC1 201516Z 16010KT 28/21 A3001 RMK A01 T02770208  RH  066%=      5-min Rain = 0
KMC1 201517Z 14011KT 28/21 A3001 RMK A01 T02770207  RH  066%=      5-min Rain = 0
KMC1 201518Z 15010KT 28/21 A3001 RMK A01 T02770208  RH  066%=      5-min Rain = 0
KMC1 201519Z 14007KT 28/21 A3001 RMK A01 T02780209  RH  066%=      5-min Rain = 0
KMC1 201520Z 15007KT 28/21 A3001 RMK A01 T02800210  RH  066%=      5-min Rain = 0
KMC1 201521Z 14008KT 28/21 A3001 RMK A01 T02830210  RH  065%=      5-min Rain = 0
KMC1 201522Z 15008KT 28/21 A3001 RMK A01 T02830210  RH  064%=      5-min Rain = 0
KMC1 201523Z 16007G12KT 28/21 A3001 RMK A01 T02840209  RH  064%=      5-min Rain = 0
KMC1 201524Z 16008KT 29/21 A3001 RMK A01 T02850209  RH  063%=      5-min Rain = 0
KMC1 201525Z 16009KT 28/21 A3001 RMK A01 T02840208  RH  064%=      5-min Rain = 0
KMC1 201526Z 17009G14KT 28/21 A3001 RMK A01 T02820206  RH  063%=      5-min Rain = 0
KMC1 201527Z 15006G11KT 28/21 A3001 RMK A01 T02820208  RH  064%=      5-min Rain = 0
KMC1 201528Z 16009KT 28/21 A3001 RMK A01 T02840208  RH  064%=      5-min Rain = 0
KMC1 201529Z 17010KT 29/21 A3001 RMK A01 T02850208  RH  063%=      5-min Rain = 0
KMC1 201530Z 15010G16KT 28/21 A3001 RMK A01 T02840208  RH  063%=      5-min Rain = 0
KMC1 201531Z 16009G14KT 29/21 A3001 RMK A01 T02850207  RH  063%=      5-min Rain = 0
KMC1 201532Z 15011KT 29/21 A3001 RMK A01 T02850207  RH  063%=      5-min Rain = 0
KMC1 201533Z 15011KT 29/21 A3001 RMK A01 T02860207  RH  063%=      5-min Rain = 0
KMC1 201534Z 15010KT 29/21 A3001 RMK A01 T02860207  RH  062%=      5-min Rain = 0
KMC1 201535Z 17012KT 29/21 A3001 RMK A01 T02850207  RH  063%=      5-min Rain = 0
KMC1 201536Z 18011KT 28/21 A3001 RMK A01 T02840208  RH  063%=      5-min Rain = 0
KMC1 201537Z 17007KT 28/21 A3001 RMK A01 T02830207  RH  063%=      5-min Rain = 0
KMC1 201538Z 16006KT 28/21 A3001 RMK A01 T02840209  RH  064%=      5-min Rain = 0
KMC1 201539Z 15008G14KT 29/21 A3001 RMK A01 T02890211  RH  063%=      5-min Rain = 0
KMC1 201540Z 16010G16KT 29/21 A3001 RMK A01 T02910209  RH  061%=      5-min Rain = 0
KMC1 201541Z 18011KT 29/21 A3001 RMK A01 T02910207  RH  061%=      5-min Rain = 0
KMC1 201542Z 18008G14KT 29/21 A3001 RMK A01 T02880207  RH  061%=      5-min Rain = 0
KMC1 201543Z 17007KT 29/21 A3001 RMK A01 T02880208  RH  062%=      5-min Rain = 0
KMC1 201544Z 16011KT 29/21 A3001 RMK A01 T02890209  RH  062%=      5-min Rain = 0
KMC1 201545Z 14010KT 29/21 A3001 RMK A01 T02890207  RH  061%=      5-min Rain = 0
KMC1 201546Z 14011KT 29/21 A3001 RMK A01 T02900207  RH  061%=      5-min Rain = 0
KMC1 201547Z 17008KT 29/21 A3001 RMK A01 T02910207  RH  060%=      5-min Rain = 0
KMC1 201548Z 16008KT 29/21 A3001 RMK A01 T02910207  RH  061%=      5-min Rain = 0
KMC1 201549Z 16008KT 29/21 A3001 RMK A01 T02920208  RH  061%=      5-min Rain = 0
KMC1 201550Z 16006KT 29/21 A3001 RMK A01 T02930209  RH  061%=      5-min Rain = 0
KMC1 201551Z 16012G17KT 29/21 A3001 RMK A01 T02930207  RH  060%=      5-min Rain = 0
KMC1 201552Z 17012KT 29/21 A3001 RMK A01 T02920207  RH  060%=      5-min Rain = 0
KMC1 201553Z 17011KT 29/21 A3001 RMK A01 T02920207  RH  060%=      5-min Rain = 0
KMC1 201554Z 16011G16KT 29/21 A3001 RMK A01 T02910206  RH  060%=      5-min Rain = 0
KMC1 201555Z 17010KT 29/21 A3001 RMK A01 T02910205  RH  060%=      5-min Rain = 0
KMC1 201556Z 15010G15KT 29/20 A3001 RMK A01 T02910202  RH  059%=      5-min Rain = 0
KMC1 201557Z 15010KT 29/21 A3001 RMK A01 T02920206  RH  060%=      5-min Rain = 0
KMC1 201558Z 15010KT 29/21 A3001 RMK A01 T02930206  RH  060%=      5-min Rain = 0
KMC1 201559Z 15009KT 29/21 A3001 RMK A01 T02930206  RH  059%=      5-min Rain = 0
KMC1 201600Z 16010KT 29/21 A3001 RMK A01 T02940206  RH  059%=      5-min Rain = 0
KMC1 201601Z 16011KT 30/21 A3001 RMK A01 T02950205  RH  058%=      5-min Rain = 0
KMC1 201602Z 16010G15KT 30/21 A3001 RMK A01 T02950205  RH  059%=      5-min Rain = 0
KMC1 201603Z 17012G18KT 29/21 A3001 RMK A01 T02940206  RH  059%=      5-min Rain = 0
KMC1 201604Z 18010KT 29/20 A3001 RMK A01 T02940204  RH  059%=      5-min Rain = 0
KMC1 201605Z 16009G14KT 29/20 A3001 RMK A01 T02930204  RH  059%=      5-min Rain = 0
KMC1 201606Z 16008KT 29/21 A3001 RMK A01 T02940205  RH  059%=      5-min Rain = 0
KMC1 201607Z 16009KT 30/21 A3001 RMK A01 T02960205  RH  058%=      5-min Rain = 0
KMC1 201608Z 15010G15KT 30/21 A3001 RMK A01 T02980206  RH  058%=      5-min Rain = 0
KMC1 201609Z 17012KT 30/20 A3001 RMK A01 T02980203  RH  057%=      5-min Rain = 0
KMC1 201610Z 17012KT 30/20 A3001 RMK A01 T02960203  RH  057%=      5-min Rain = 0
KMC1 201611Z 18012KT 30/20 A3001 RMK A01 T02950204  RH  058%=      5-min Rain = 0
KMC1 201612Z 18010G15KT 29/20 A3001 RMK A01 T02940203  RH  058%=      5-min Rain = 0
KMC1 201613Z 17010KT 30/20 A3001 RMK A01 T02950203  RH  058%=      5-min Rain = 0
KMC1 201614Z 17008G14KT 30/20 A3001 RMK A01 T02960204  RH  057%=      5-min Rain = 0
KMC1 201615Z 17013G18KT 30/20 A3001 RMK A01 T02980202  RH  056%=      5-min Rain = 0
KMC1 201616Z 17012KT 30/20 A3001 RMK A01 T02980201  RH  056%=      5-min Rain = 0
KMC1 201617Z 16014KT 30/20 A3001 RMK A01 T02990201  RH  055%=      5-min Rain = 0
KMC1 201618Z 17010KT 30/20 A3001 RMK A01 T02990200  RH  055%=      5-min Rain = 0
KMC1 201619Z 17010KT 30/20 A3001 RMK A01 T02980200  RH  056%=      5-min Rain = 0
KMC1 201620Z 17012G17KT 30/20 A3001 RMK A01 T02990199  RH  055%=      5-min Rain = 0
KMC1 201621Z 18009G14KT 30/20 A3001 RMK A01 T03010198  RH  054%=      5-min Rain = 0
KMC1 201622Z 19014G20KT 30/20 A3001 RMK A01 T03020197  RH  053%=      5-min Rain = 0
KMC1 201623Z 19007KT 30/20 A3001 RMK A01 T03020197  RH  054%=      5-min Rain = 0
KMC1 201624Z 19006KT 30/20 A3001 RMK A01 T03030198  RH  054%=      5-min Rain = 0
KMC1 201625Z 15009G14KT 31/20 A3001 RMK A01 T03060200  RH  053%=      5-min Rain = 0
KMC1 201626Z 16010KT 31/20 A3001 RMK A01 T03080202  RH  053%=      5-min Rain = 0
KMC1 201627Z 16009G14KT 31/20 A3001 RMK A01 T03070200  RH  053%=      5-min Rain = 0
KMC1 201628Z 17011KT 31/20 A3001 RMK A01 T03060200  RH  053%=      5-min Rain = 0
KMC1 201629Z 17009G14KT 31/20 A3001 RMK A01 T03080198  RH  052%=      5-min Rain = 0
KMC1 201630Z 17011KT 31/20 A3001 RMK A01 T03100197  RH  051%=      5-min Rain = 0
KMC1 201631Z 18009G16KT 31/20 A3001 RMK A01 T03090198  RH  051%=      5-min Rain = 0
KMC1 201632Z 17012KT 31/20 A3001 RMK A01 T03090195  RH  051%=      5-min Rain = 0
KMC1 201633Z 19010KT 31/19 A3001 RMK A01 T03090194  RH  051%=      5-min Rain = 0
KMC1 201634Z 18013G19KT 31/19 A3001 RMK A01 T03090192  RH  050%=      5-min Rain = 0
KMC1 201635Z 17011KT 31/19 A3001 RMK A01 T03060191  RH  050%=      5-min Rain = 0
KMC1 201636Z 19010G17KT 31/19 A3001 RMK A01 T03060192  RH  051%=      5-min Rain = 0
KMC1 201637Z 18012KT 31/19 A3001 RMK A01 T03060191  RH  050%=      5-min Rain = 0
KMC1 201638Z 19012KT 31/19 A3001 RMK A01 T03050194  RH  051%=      5-min Rain = 0
KMC1 201639Z 17010KT 31/20 A3001 RMK A01 T03050195  RH  052%=      5-min Rain = 0
KMC1 201640Z 17009KT 31/20 A3001 RMK A01 T03050195  RH  052%=      5-min Rain = 0
KMC1 201641Z 16011KT 31/20 A3001 RMK A01 T03050195  RH  052%=      5-min Rain = 0
KMC1 201642Z 16010KT 31/19 A3001 RMK A01 T03080189  RH  049%=      5-min Rain = 0
KMC1 201643Z 17010KT 31/19 A3001 RMK A01 T03090189  RH  049%=      5-min Rain = 0
KMC1 201644Z 17009G14KT 31/19 A3001 RMK A01 T03100191  RH  049%=      5-min Rain = 0
KMC1 201645Z 18011KT 31/19 A3001 RMK A01 T03140192  RH  048%=      5-min Rain = 0
KMC1 201646Z 19009KT 32/19 A3001 RMK A01 T03150190  RH  047%=      5-min Rain = 0
KMC1 201647Z 18012G17KT 31/19 A3001 RMK A01 T03130190  RH  048%=      5-min Rain = 0
KMC1 201648Z 19012G20KT 31/19 A3001 RMK A01 T03120190  RH  048%=      5-min Rain = 0
KMC1 201649Z 19014G22KT 31/19 A3001 RMK A01 T03100187  RH  048%=      5-min Rain = 0
KMC1 201650Z 18009KT 31/19 A3001 RMK A01 T03100189  RH  049%=      5-min Rain = 0
KMC1 201651Z 18009KT 31/19 A3001 RMK A01 T03120191  RH  048%=      5-min Rain = 0
KMC1 201652Z 17013G18KT 31/19 A3001 RMK A01 T03140192  RH  048%=      5-min Rain = 0
KMC1 201653Z 17012KT 31/19 A3001 RMK A01 T03140191  RH  048%=      5-min Rain = 0
KMC1 201654Z 18011G17KT 31/19 A3001 RMK A01 T03140188  RH  047%=      5-min Rain = 0
KMC1 201655Z 17012KT 32/18 A3001 RMK A01 T03150182  RH  045%=      5-min Rain = 0
KMC1 201656Z 18009G14KT 32/18 A3001 RMK A01 T03150184  RH  046%=      5-min Rain = 0
KMC1 201657Z 18013KT 32/19 A3001 RMK A01 T03150186  RH  046%=      5-min Rain = 0
KMC1 201658Z 18015KT 32/19 A3001 RMK A01 T03150191  RH  048%=      5-min Rain = 0
KMC1 201659Z 16011G17KT 32/19 A3001 RMK A01 T03160190  RH  047%=      5-min Rain = 0
KMC1 201700Z 16009G14KT 31/19 A3001 RMK A01 T03140193  RH  049%=      5-min Rain = 0
KMC1 201701Z 18014KT 32/19 A3001 RMK A01 T03150185  RH  046%=      5-min Rain = 0
KMC1 201702Z 18015KT 32/18 A3001 RMK A01 T03160178  RH  044%=      5-min Rain = 0
KMC1 201703Z 18013G18KT 32/18 A3001 RMK A01 T03150183  RH  045%=      5-min Rain = 0
KMC1 201704Z 18014KT 32/19 A3001 RMK A01 T03150186  RH  046%=      5-min Rain = 0
KMC1 201705Z 16009G14KT 31/19 A3001 RMK A01 T03140188  RH  047%=      5-min Rain = 0
KMC1 201706Z 17012G17KT 32/19 A3001 RMK A01 T03150186  RH  046%=      5-min Rain = 0
KMC1 201707Z 17011G16KT 31/18 A3001 RMK A01 T03140184  RH  046%=      5-min Rain = 0
KMC1 201708Z 19010KT 31/19 A3001 RMK A01 T03140185  RH  046%=      5-min Rain = 0
KMC1 201709Z 20011KT 32/19 A30 RMK A01 T03150186  RH  046%=      5-min Rain = 0
KMC1 201710Z 18013KT 32/19 A30 RMK A01 T03170186  RH  046%=      5-min Rain = 0
KMC1 201711Z 19011G16KT 32/19 A30 RMK A01 T03160186  RH  046%=      5-min Rain = 0
KMC1 201712Z 17009KT 32/19 A3001 RMK A01 T03150186  RH  046%=      5-min Rain = 0
KMC1 201713Z 15010G17KT 32/19 A30 RMK A01 T03180188  RH  046%=      5-min Rain = 0
KMC1 201714Z 16013G18KT 32/18 A30 RMK A01 T03220183  RH  044%=      5-min Rain = 0
KMC1 201715Z 16011G17KT 32/18 A30 RMK A01 T03230182  RH  043%=      5-min Rain = 0
KMC1 201716Z 17012G17KT 32/18 A30 RMK A01 T03230182  RH  043%=      5-min Rain = 0
KMC1 201717Z 15011KT 32/19 A30 RMK A01 T03230185  RH  044%=      5-min Rain = 0
KMC1 201718Z 16009G15KT 32/19 A30 RMK A01 T03230188  RH  045%=      5-min Rain = 0
KMC1 201719Z 18012G18KT 32/19 A30 RMK A01 T03240188  RH  045%=      5-min Rain = 0
KMC1 201720Z 17012KT 32/19 A30 RMK A01 T03240186  RH  044%=      5-min Rain = 0
KMC1 201721Z 16011KT 32/18 A30 RMK A01 T03240184  RH  044%=      5-min Rain = 0
KMC1 201722Z 16011G18KT 32/19 A30 RMK A01 T03230186  RH  044%=      5-min Rain = 0
KMC1 201723Z 18009G14KT 32/19 A30 RMK A01 T03230185  RH  044%=      5-min Rain = 0
KMC1 201724Z 16008G15KT 32/19 A30 RMK A01 T03220185  RH  044%=      5-min Rain = 0
KMC1 201725Z 17012G17KT 32/18 A30 RMK A01 T03240182  RH  043%=      5-min Rain = 0
KMC1 201726Z 18011KT 33/18 A30 RMK A01 T03260181  RH  042%=      5-min Rain = 0
KMC1 201727Z 18012G18KT 33/18 A30 RMK A01 T03260179  RH  042%=      5-min Rain = 0
KMC1 201728Z 17012KT 33/18 A30 RMK A01 T03260179  RH  042%=      5-min Rain = 0
KMC1 201729Z 17015KT 33/18 A30 RMK A01 T03260182  RH  042%=      5-min Rain = 0
KMC1 201730Z 15009KT 32/18 A30 RMK A01 T03240183  RH  043%=      5-min Rain = 0
KMC1 201731Z 17011KT 32/19 A30 RMK A01 T03240185  RH  044%=      5-min Rain = 0
KMC1 201732Z 18014KT 33/19 A30 RMK A01 T03260185  RH  043%=      5-min Rain = 0
KMC1 201733Z 17016KT 33/18 A30 RMK A01 T03260183  RH  043%=      5-min Rain = 0
KMC1 201734Z 16011G16KT 32/18 A30 RMK A01 T03230182  RH  043%=      5-min Rain = 0
KMC1 201735Z 16011KT 32/18 A30 RMK A01 T03220183  RH  044%=      5-min Rain = 0
KMC1 201736Z 17011G16KT 32/18 A30 RMK A01 T03230182  RH  043%=      5-min Rain = 0
KMC1 201737Z 17012G18KT 33/18 A30 RMK A01 T03250183  RH  043%=      5-min Rain = 0
KMC1 201738Z 16012G17KT 33/18 A30 RMK A01 T03260183  RH  043%=      5-min Rain = 0
KMC1 201739Z 15007KT 33/18 A30 RMK A01 T03260184  RH  043%=      5-min Rain = 0
KMC1 201740Z 17007KT 33/19 A30 RMK A01 T03270186  RH  043%=      5-min Rain = 0
KMC1 201741Z 16013KT 33/19 A30 RMK A01 T03290186  RH  043%=      5-min Rain = 0
KMC1 201742Z 16010KT 33/19 A30 RMK A01 T03290186  RH  043%=      5-min Rain = 0
KMC1 201743Z 15010KT 33/19 A30 RMK A01 T03270186  RH  043%=      5-min Rain = 0
KMC1 201744Z 16009KT 33/19 A30 RMK A01 T03280186  RH  043%=      5-min Rain = 0
KMC1 201745Z 16009KT 33/19 A30 RMK A01 T03280185  RH  043%=      5-min Rain = 0
KMC1 201746Z 16010G15KT 33/19 A30 RMK A01 T03300186  RH  043%=      5-min Rain = 0
KMC1 201747Z 16011KT 33/19 A30 RMK A01 T03330186  RH  042%=      5-min Rain = 0
KMC1 201748Z 18009G15KT 33/19 A30 RMK A01 T03330185  RH  042%=      5-min Rain = 0
KMC1 201749Z 15007G12KT 33/19 A30 RMK A01 T03320187  RH  042%=      5-min Rain = 0
KMC1 201750Z 15011G16KT 33/19 A30 RMK A01 T03330185  RH  041%=      5-min Rain = 0
KMC1 201751Z 15011KT 33/19 A30 RMK A01 T03340185  RH  041%=      5-min Rain = 0
KMC1 201752Z 15010G15KT 34/19 A30 RMK A01 T03350185  RH  041%=      5-min Rain = 0
KMC1 201753Z 17009KT 34/18 A30 RMK A01 T03350184  RH  041%=      5-min Rain = 0
KMC1 201754Z 14010G15KT 33/19 A30 RMK A01 T03330186  RH  042%=      5-min Rain = 0
KMC1 201755Z 16012G19KT 33/19 A30 RMK A01 T03340186  RH  041%=      5-min Rain = 0
KMC1 201756Z 18014KT 34/18 A30 RMK A01 T03360182  RH  040%=      5-min Rain = 0
KMC1 201757Z 17011KT 33/18 A30 RMK A01 T03340180  RH  040%=      5-min Rain = 0
KMC1 201758Z 16006G11KT 33/18 A30 RMK A01 T03310180  RH  041%=      5-min Rain = 0
KMC1 201759Z 17007KT 33/18 A30 RMK A01 T03320180  RH  041%=      5-min Rain = 0
KMC1 201800Z 16007G12KT 33/18 A30 RMK A01 T03340182  RH  041%=      5-min Rain = 0
KMC1 201801Z 17008KT 34/19 A30 RMK A01 T03390186  RH  041%=      5-min Rain = 0
KMC1 201802Z 17012KT 34/18 A30 RMK A01 T03420184  RH  039%=      5-min Rain = 0
KMC1 201803Z 19008KT 34/18 A30 RMK A01 T03390184  RH  040%=      5-min Rain = 0
KMC1 201804Z 19007KT 34/18 A30 RMK A01 T03360181  RH  040%=      5-min Rain = 0
KMC1 201805Z 15008G13KT 34/18 A30 RMK A01 T03350184  RH  041%=      5-min Rain = 0
KMC1 201806Z 16009G16KT 34/18 A30 RMK A01 T03380182  RH  040%=      5-min Rain = 0
KMC1 201807Z 16014KT 34/18 A30 RMK A01 T03410179  RH  038%=      5-min Rain = 0
KMC1 201808Z 15012KT 34/18 A2999 RMK A01 T03380178  RH  039%=      5-min Rain = 0
KMC1 201809Z 15011KT 34/18 A2999 RMK A01 T03350177  RH  039%=      5-min Rain = 0
KMC1 201810Z 14011KT 33/18 A2999 RMK A01 T03340175  RH  039%=      5-min Rain = 0
KMC1 201811Z 15012KT 34/18 A2999 RMK A01 T03350176  RH  039%=      5-min Rain = 0
KMC1 201812Z 14012KT 34/18 A2999 RMK A01 T03370177  RH  039%=      5-min Rain = 0
KMC1 201813Z 14013KT 34/18 A2999 RMK A01 T03390179  RH  039%=      5-min Rain = 0
KMC1 201814Z 14008KT 34/18 A2999 RMK A01 T03380180  RH  039%=      5-min Rain = 0
KMC1 201815Z 15008G13KT 34/18 A2999 RMK A01 T03390182  RH  039%=      5-min Rain = 0
KMC1 201816Z 15014KT 34/18 A2999 RMK A01 T03420179  RH  038%=      5-min Rain = 0
KMC1 201817Z 14013G19KT 34/18 A2999 RMK A01 T03410179  RH  038%=      5-min Rain = 0
KMC1 201818Z 15013G18KT 34/18 A2999 RMK A01 T03400177  RH  038%=      5-min Rain = 0
KMC1 201819Z 14013KT 34/18 A2999 RMK A01 T03400175  RH  038%=      5-min Rain = 0
KMC1 201820Z 16014KT 34/18 A2999 RMK A01 T03380176  RH  038%=      5-min Rain = 0
KMC1 201821Z 16008KT 34/18 A2999 RMK A01 T03380178  RH  039%=      5-min Rain = 0
KMC1 201822Z 17013KT 34/18 A2999 RMK A01 T03410179  RH  038%=      5-min Rain = 0
KMC1 201823Z 16010G16KT 34/18 A2999 RMK A01 T03420180  RH  038%=      5-min Rain = 0
KMC1 201824Z 14011G16KT 34/18 A2999 RMK A01 T03420182  RH  039%=      5-min Rain = 0
KMC1 201825Z 13013KT 34/18 A2999 RMK A01 T03430181  RH  038%=      5-min Rain = 0
KMC1 201826Z 14008G13KT 34/18 A2999 RMK A01 T03410180  RH  039%=      5-min Rain = 0
KMC1 201827Z 16007G12KT 34/18 A2999 RMK A01 T03400183  RH  039%=      5-min Rain = 0
KMC1 201828Z 15008G13KT 35/18 A2999 RMK A01 T03450184  RH  039%=      5-min Rain = 0
KMC1 201829Z 16010G15KT 35/18 A2999 RMK A01 T03470181  RH  037%=      5-min Rain = 0
KMC1 201830Z 16012KT 35/18 A2999 RMK A01 T03460178  RH  037%=      5-min Rain = 0
KMC1 201831Z 15012G18KT 34/17 A2999 RMK A01 T03420174  RH  037%=      5-min Rain = 0
KMC1 201832Z 15011G16KT 34/17 A2998 RMK A01 T03430172  RH  036%=      5-min Rain = 0
KMC1 201833Z 14011G16KT 34/17 A2998 RMK A01 T03440169  RH  035%=      5-min Rain = 0
KMC1 201834Z 14013G18KT 35/17 A2998 RMK A01 T03450169  RH  035%=      5-min Rain = 0
KMC1 201835Z 16010KT 35/17 A2998 RMK A01 T03450170  RH  035%=      5-min Rain = 0
KMC1 201836Z 15009G15KT 35/17 A2998 RMK A01 T03470172  RH  036%=      5-min Rain = 0
KMC1 201837Z 15012KT 35/17 A2998 RMK A01 T03510171  RH  034%=      5-min Rain = 0
KMC1 201838Z 15010KT 35/17 A2998 RMK A01 T03490171  RH  035%=      5-min Rain = 0
KMC1 201839Z 17013KT 35/17 A2998 RMK A01 T03480168  RH  034%=      5-min Rain = 0
KMC1 201840Z 18011G17KT 35/17 A2998 RMK A01 T03480166  RH  034%=      5-min Rain = 0
KMC1 201841Z 18006KT 35/17 A2998 RMK A01 T03500166  RH  034%=      5-min Rain = 0
KMC1 201842Z 16010KT 36/17 A2998 RMK A01 T03550165  RH  032%=      5-min Rain = 0
KMC1 201843Z 16013KT 36/16 A2998 RMK A01 T03550164  RH  032%=      5-min Rain = 0
KMC1 201844Z 17010G20KT 35/17 A2998 RMK A01 T03530166  RH  033%=      5-min Rain = 0
KMC1 201845Z 18015G20KT 35/16 A2998 RMK A01 T03510161  RH  032%=      5-min Rain = 0
KMC1 201846Z 19012KT 35/16 A2998 RMK A01 T03490159  RH  032%=      5-min Rain = 0
KMC1 201847Z 20009KT 35/16 A2998 RMK A01 T03490156  RH  032%=      5-min Rain = 0
KMC1 201848Z 16010G19KT 35/16 A2998 RMK A01 T03510159  RH  032%=      5-min Rain = 0
KMC1 201849Z 16011G18KT 35/17 A2998 RMK A01 T03520169  RH  034%=      5-min Rain = 0
KMC1 201850Z 15008KT 35/18 A2998 RMK A01 T03500175  RH  035%=      5-min Rain = 0
KMC1 201851Z 15007KT 35/18 A2998 RMK A01 T03500177  RH  036%=      5-min Rain = 0
KMC1 201852Z 16011KT 35/18 A2998 RMK A01 T03520176  RH  035%=      5-min Rain = 0
KMC1 201853Z 17011G17KT 35/17 A2998 RMK A01 T03520174  RH  035%=      5-min Rain = 0
KMC1 201854Z 17013KT 35/17 A2998 RMK A01 T03530174  RH  035%=      5-min Rain = 0
KMC1 201855Z 15011G17KT 35/18 A2998 RMK A01 T03500175  RH  036%=      5-min Rain = 0
KMC1 201856Z 15012KT 35/17 A2998 RMK A01 T03500173  RH  035%=      5-min Rain = 0
KMC1 201857Z 14012KT 35/17 A2998 RMK A01 T03490173  RH  035%=      5-min Rain = 0
KMC1 201858Z 15010KT 35/17 A2998 RMK A01 T03470173  RH  036%=      5-min Rain = 0
KMC1 201859Z 15008G13KT 35/18 A2998 RMK A01 T03470176  RH  036%=      5-min Rain = 0
KMC1 201900Z 15011G19KT 35/17 A2997 RMK A01 T03500171  RH  035%=      5-min Rain = 0
KMC1 201901Z 15010KT 35/17 A2997 RMK A01 T03490169  RH  034%=      5-min Rain = 0
KMC1 201902Z 15008KT 35/17 A2997 RMK A01 T03480170  RH  035%=      5-min Rain = 0
KMC1 201903Z 15007KT 35/17 A2997 RMK A01 T03500170  RH  034%=      5-min Rain = 0
KMC1 201904Z 13006G11KT 35/17 A2997 RMK A01 T03510172  RH  035%=      5-min Rain = 0
KMC1 201905Z 15010G15KT 35/17 A2997 RMK A01 T03540174  RH  034%=      5-min Rain = 0
KMC1 201906Z 17011KT 36/17 A2997 RMK A01 T03560172  RH  034%=      5-min Rain = 0
KMC1 201907Z 17006KT 35/17 A2997 RMK A01 T03530173  RH  034%=      5-min Rain = 0
KMC1 201908Z 13011G16KT 35/17 A2997 RMK A01 T03520174  RH  035%=      5-min Rain = 0
KMC1 201909Z 14010KT 35/17 A2997 RMK A01 T03520171  RH  034%=      5-min Rain = 0
KMC1 201910Z 14011KT 35/17 A2997 RMK A01 T03520169  RH  034%=      5-min Rain = 0
KMC1 201911Z 14011KT 35/17 A2997 RMK A01 T03520166  RH  033%=      5-min Rain = 0
KMC1 201912Z 16011G19KT 35/17 A2997 RMK A01 T03510166  RH  033%=      5-min Rain = 0
KMC1 201913Z 16013G18KT 35/17 A2997 RMK A01 T03500169  RH  034%=      5-min Rain = 0
KMC1 201914Z 14011G16KT 35/17 A2997 RMK A01 T03520168  RH  034%=      5-min Rain = 0
KMC1 201915Z 15012KT 35/17 A2997 RMK A01 T03520168  RH  034%=      5-min Rain = 0
KMC1 201916Z 14007KT 35/17 A2997 RMK A01 T03530169  RH  034%=      5-min Rain = 0
KMC1 201917Z 14008G13KT 36/17 A2997 RMK A01 T03560172  RH  034%=      5-min Rain = 0
KMC1 201918Z 15015KT 36/17 A2997 RMK A01 T03590169  RH  033%=      5-min Rain = 0
KMC1 201919Z 14011KT 36/17 A2997 RMK A01 T03560167  RH  033%=      5-min Rain = 0
KMC1 201920Z 14010KT 35/17 A2997 RMK A01 T03540168  RH  033%=      5-min Rain = 0
KMC1 201921Z 16007KT 36/17 A2997 RMK A01 T03570170  RH  033%=      5-min Rain = 0
KMC1 201922Z 13007G14KT 36/17 A2997 RMK A01 T03600171  RH  033%=      5-min Rain = 0
KMC1 201923Z 13015KT 36/16 A2996 RMK A01 T03590162  RH  031%=      5-min Rain = 0
KMC1 201924Z 17012G19KT 35/16 A2997 RMK A01 T03540162  RH  032%=      5-min Rain = 0
KMC1 201925Z 20008G13KT 36/16 A2997 RMK A01 T03560155  RH  030%=      5-min Rain = 0
KMC1 201926Z 17007KT 36/15 A2997 RMK A01 T03590153  RH  029%=      5-min Rain = 0
KMC1 201927Z 15006G13KT 36/16 A2997 RMK A01 T03590157  RH  030%=      5-min Rain = 0
KMC1 201928Z 16010G17KT 36/16 A2997 RMK A01 T03600161  RH  031%=      5-min Rain = 0
KMC1 201929Z 15009G15KT 36/16 A2997 RMK A01 T03580164  RH  032%=      5-min Rain = 0
KMC1 201930Z 16011G16KT 36/16 A2997 RMK A01 T03590164  RH  032%=      5-min Rain = 0
KMC1 201931Z 16010G15KT 36/16 A2997 RMK A01 T03610164  RH  031%=      5-min Rain = 0
KMC1 201932Z 16008G13KT 36/16 A2997 RMK A01 T03610164  RH  031%=      5-min Rain = 0
KMC1 201933Z 16008G13KT 36/16 A2997 RMK A01 T03610162  RH  031%=      5-min Rain = 0
KMC1 201934Z 17008KT 36/16 A2997 RMK A01 T03570164  RH  032%=      5-min Rain = 0
KMC1 201935Z 15009G14KT 36/16 A2997 RMK A01 T03560163  RH  032%=      5-min Rain = 0
KMC1 201936Z 14012KT 36/16 A2997 RMK A01 T03570162  RH  031%=      5-min Rain = 0
KMC1 201937Z 16012KT 36/16 A2997 RMK A01 T03570161  RH  031%=      5-min Rain = 0
KMC1 201938Z 15010G16KT 36/16 A2997 RMK A01 T03580159  RH  031%=      5-min Rain = 0
KMC1 201939Z 14009KT 36/16 A2997 RMK A01 T03570156  RH  030%=      5-min Rain = 0
KMC1 201940Z 16014G19KT 36/16 A2997 RMK A01 T03560156  RH  030%=      5-min Rain = 0
KMC1 201941Z 17012KT 36/15 A2997 RMK A01 T03550153  RH  030%=      5-min Rain = 0
KMC1 201942Z 17011KT 35/15 A2997 RMK A01 T03540152  RH  030%=      5-min Rain = 0
KMC1 201943Z 16007G13KT 35/15 A2997 RMK A01 T03540152  RH  030%=      5-min Rain = 0
KMC1 201944Z 15010KT 36/15 A2997 RMK A01 T03580153  RH  030%=      5-min Rain = 0
KMC1 201945Z 15012KT 36/15 A2996 RMK A01 T03600154  RH  029%=      5-min Rain = 0
KMC1 201946Z 15012G17KT 36/16 A2996 RMK A01 T03590155  RH  030%=      5-min Rain = 0
KMC1 201947Z 14012KT 36/16 A2996 RMK A01 T03580156  RH  030%=      5-min Rain = 0
KMC1 201948Z 13011KT 36/16 A2996 RMK A01 T03580156  RH  030%=      5-min Rain = 0
KMC1 201949Z 13010KT 36/15 A2996 RMK A01 T03580153  RH  030%=      5-min Rain = 0
KMC1 201950Z 15008KT 36/15 A2996 RMK A01 T03550154  RH  030%=      5-min Rain = 0
KMC1 201951Z 17013G18KT 36/15 A2996 RMK A01 T03570151  RH  029%=      5-min Rain = 0
KMC1 201952Z 19008G14KT 36/15 A2996 RMK A01 T03580151  RH  029%=      5-min Rain = 0
KMC1 201953Z 15010G16KT 36/15 A2996 RMK A01 T03600152  RH  029%=      5-min Rain = 0
KMC1 201954Z 14011KT 36/15 A2996 RMK A01 T03590152  RH  029%=      5-min Rain = 0
KMC1 201955Z 15010KT 36/15 A2996 RMK A01 T03560153  RH  030%=      5-min Rain = 0
KMC1 201956Z 18010KT 36/16 A2996 RMK A01 T03550157  RH  031%=      5-min Rain = 0
KMC1 201957Z 16008KT 36/16 A2996 RMK A01 T03570156  RH  030%=      5-min Rain = 0
KMC1 201958Z 17009KT 36/16 A2996 RMK A01 T03560157  RH  031%=      5-min Rain = 0
KMC1 201959Z 15010KT 36/16 A2996 RMK A01 T03570158  RH  031%=      5-min Rain = 0
KMC1 202000Z 16010G15KT 36/16 A2995 RMK A01 T03590160  RH  031%=      5-min Rain = 0
KMC1 202001Z 15011G16KT 36/16 A2995 RMK A01 T03620156  RH  030%=      5-min Rain = 0
KMC1 202002Z 14009KT 36/16 A2995 RMK A01 T03620158  RH  030%=      5-min Rain = 0
KMC1 202003Z 15010G18KT 36/16 A2995 RMK A01 T03610159  RH  030%=      5-min Rain = 0
KMC1 202004Z 14012G17KT 36/16 A2995 RMK A01 T03620158  RH  030%=      5-min Rain = 0
KMC1 202005Z 15011KT 36/16 A2995 RMK A01 T03620157  RH  030%=      5-min Rain = 0
KMC1 202006Z 14011G17KT 36/16 A2995 RMK A01 T03610155  RH  029%=      5-min Rain = 0
KMC1 202007Z 14011G18KT 36/16 A2995 RMK A01 T03590156  RH  030%=      5-min Rain = 0
KMC1 202008Z 16011KT 36/16 A2995 RMK A01 T03600156  RH  030%=      5-min Rain = 0
KMC1 202009Z 15009KT 36/16 A2995 RMK A01 T03600157  RH  030%=      5-min Rain = 0
KMC1 202010Z 15009KT 36/16 A2995 RMK A01 T03600156  RH  030%=      5-min Rain = 0
KMC1 202011Z 16008G16KT 36/16 A2995 RMK A01 T03600156  RH  030%=      5-min Rain = 0
KMC1 202012Z 15010KT 36/16 A2995 RMK A01 T03610157  RH  030%=      5-min Rain = 0
KMC1 202013Z 14013KT 36/16 A2995 RMK A01 T03630160  RH  030%=      5-min Rain = 0
KMC1 202014Z 14014KT 36/16 A2995 RMK A01 T03640161  RH  030%=      5-min Rain = 0
KMC1 202015Z 14009KT 36/16 A2995 RMK A01 T03630161  RH  030%=      5-min Rain = 0
KMC1 202016Z 14012KT 36/16 A2995 RMK A01 T03630161  RH  030%=      5-min Rain = 0
KMC1 202017Z 14013G18KT 36/16 A2995 RMK A01 T03630159  RH  030%=      5-min Rain = 0
KMC1 202018Z 14010KT 36/16 A2995 RMK A01 T03620158  RH  030%=      5-min Rain = 0
KMC1 202019Z 15012G17KT 36/16 A2995 RMK A01 T03610157  RH  030%=      5-min Rain = 0
KMC1 202020Z 17012G21KT 36/16 A2995 RMK A01 T03600156  RH  030%=      5-min Rain = 0
KMC1 202021Z 15012KT 36/16 A2995 RMK A01 T03630156  RH  029%=      5-min Rain = 0
KMC1 202022Z 14009KT 37/15 A2995 RMK A01 T03650154  RH  029%=      5-min Rain = 0
KMC1 202023Z 14009G14KT 37/16 A2995 RMK A01 T03670156  RH  029%=      5-min Rain = 0
KMC1 202024Z 13011G16KT 37/16 A2995 RMK A01 T03690155  RH  028%=      5-min Rain = 0
KMC1 202025Z 13009G16KT 37/16 A2995 RMK A01 T03680156  RH  028%=      5-min Rain = 0
KMC1 202026Z 16011G18KT 37/16 A2995 RMK A01 T03670156  RH  029%=      5-min Rain = 0
KMC1 202027Z 17014G19KT 37/16 A2995 RMK A01 T03670155  RH  028%=      5-min Rain = 0
KMC1 202028Z 17012KT 37/15 A2995 RMK A01 T03650151  RH  028%=      5-min Rain = 0
KMC1 202029Z 17008KT 36/15 A2995 RMK A01 T03630154  RH  029%=      5-min Rain = 0
KMC1 202030Z 16005G11KT 37/16 A2995 RMK A01 T03670157  RH  029%=      5-min Rain = 0
KMC1 202031Z 16005KT 37/16 A2994 RMK A01 T03730159  RH  028%=      5-min Rain = 0
KMC1 202032Z 17011KT 38/15 A2994 RMK A01 T03780154  RH  027%=      5-min Rain = 0
KMC1 202033Z 16010KT 37/15 A2994 RMK A01 T03730152  RH  027%=      5-min Rain = 0
KMC1 202034Z 16011KT 37/15 A2994 RMK A01 T03700152  RH  028%=      5-min Rain = 0
KMC1 202035Z 17011KT 37/15 A2994 RMK A01 T03690152  RH  028%=      5-min Rain = 0
KMC1 202036Z 16008KT 37/15 A2994 RMK A01 T03670152  RH  028%=      5-min Rain = 0
KMC1 202037Z 13014G19KT 37/15 A2994 RMK A01 T03660154  RH  029%=      5-min Rain = 0
KMC1 202038Z 14014KT 36/15 A2994 RMK A01 T03630153  RH  029%=      5-min Rain = 0
KMC1 202039Z 15011KT 36/15 A2994 RMK A01 T03600152  RH  029%=      5-min Rain = 0
KMC1 202040Z 16012KT 36/15 A2994 RMK A01 T03590154  RH  029%=      5-min Rain = 0
KMC1 202041Z 16012KT 36/15 A2994 RMK A01 T03610150  RH  029%=      5-min Rain = 0
KMC1 202042Z 15012KT 36/15 A2994 RMK A01 T03610148  RH  028%=      5-min Rain = 0
KMC1 202043Z 15012KT 36/15 A2994 RMK A01 T03640146  RH  027%=      5-min Rain = 0
KMC1 202044Z 15012G17KT 36/15 A2994 RMK A01 T03640145  RH  027%=      5-min Rain = 0
KMC1 202045Z 17010G15KT 37/15 A2994 RMK A01 T03650149  RH  028%=      5-min Rain = 0
KMC1 202046Z 16014KT 37/15 A2994 RMK A01 T03660151  RH  028%=      5-min Rain = 0
KMC1 202047Z 15011KT 36/15 A2994 RMK A01 T03640149  RH  028%=      5-min Rain = 0
KMC1 202048Z 17011KT 36/15 A2994 RMK A01 T03620151  RH  029%=      5-min Rain = 0
KMC1 202049Z 18011G16KT 36/15 A2994 RMK A01 T03640151  RH  028%=      5-min Rain = 0
KMC1 202050Z 17007KT 37/15 A2994 RMK A01 T03650149  RH  028%=      5-min Rain = 0
KMC1 202051Z 15008G14KT 37/15 A2994 RMK A01 T03650153  RH  028%=      5-min Rain = 0
KMC1 202052Z 15011G16KT 37/15 A2994 RMK A01 T03670150  RH  028%=      5-min Rain = 0
KMC1 202053Z 15009G15KT 37/15 A2994 RMK A01 T03660150  RH  028%=      5-min Rain = 0
KMC1 202054Z 14009G16KT 37/15 A2994 RMK A01 T03680149  RH  027%=      5-min Rain = 0
KMC1 202055Z 13007KT 37/15 A2994 RMK A01 T03680149  RH  027%=      5-min Rain = 0
KMC1 202056Z 14007KT 37/15 A2994 RMK A01 T03680148  RH  027%=      5-min Rain = 0
KMC1 202057Z 16012G17KT 37/15 A2994 RMK A01 T03680147  RH  027%=      5-min Rain = 0
KMC1 202058Z 16012KT 37/15 A2994 RMK A01 T03690145  RH  026%=      5-min Rain = 0
KMC1 202059Z 14013KT 37/15 A2993 RMK A01 T03660145  RH  027%=      5-min Rain = 0
KMC1 202100Z 15009KT 36/14 A2993 RMK A01 T03640144  RH  027%=      5-min Rain = 0
KMC1 202101Z 15012G20KT 37/15 A2993 RMK A01 T03650148  RH  027%=      5-min Rain = 0
KMC1 202102Z 15009G14KT 37/15 A2993 RMK A01 T03680148  RH  027%=      5-min Rain = 0
KMC1 202103Z 15009KT 37/15 A2993 RMK A01 T03680151  RH  028%=      5-min Rain = 0
KMC1 202104Z 16012G17KT 37/15 A2993 RMK A01 T03700152  RH  028%=      5-min Rain = 0
KMC1 202105Z 17010G15KT 37/15 A2993 RMK A01 T03680152  RH  028%=      5-min Rain = 0
KMC1 202106Z 16006KT 37/16 A2993 RMK A01 T03680155  RH  028%=      5-min Rain = 0
KMC1 202107Z 16009G14KT 37/15 A2993 RMK A01 T03710153  RH  028%=      5-min Rain = 0
KMC1 202108Z 14014KT 37/15 A2993 RMK A01 T03710150  RH  027%=      5-min Rain = 0
KMC1 202109Z 14013G18KT 37/15 A2993 RMK A01 T03670150  RH  027%=      5-min Rain = 0
KMC1 202110Z 14010G16KT 37/15 A2993 RMK A01 T03660152  RH  028%=      5-min Rain = 0
KMC1 202111Z 15008KT 37/15 A2993 RMK A01 T03680154  RH  028%=      5-min Rain = 0
KMC1 202112Z 17012KT 37/16 A2993 RMK A01 T03700155  RH  028%=      5-min Rain = 0
KMC1 202113Z 17011KT 37/15 A2993 RMK A01 T03700153  RH  028%=      5-min Rain = 0
KMC1 202114Z 17007KT 37/16 A2993 RMK A01 T03670155  RH  028%=      5-min Rain = 0
KMC1 202115Z 15010G16KT 37/15 A2993 RMK A01 T03680154  RH  028%=      5-min Rain = 0
KMC1 202116Z 14014G20KT 37/15 A2993 RMK A01 T03690147  RH  027%=      5-min Rain = 0
KMC1 202117Z 13011KT 37/14 A2993 RMK A01 T03660141  RH  026%=      5-min Rain = 0
KMC1 202118Z 16006KT 36/14 A2993 RMK A01 T03640142  RH  027%=      5-min Rain = 0
KMC1 202119Z 16009KT 37/15 A2993 RMK A01 T03670145  RH  027%=      5-min Rain = 0
KMC1 202120Z 18011KT 37/15 A2993 RMK A01 T03700146  RH  026%=      5-min Rain = 0
KMC1 202121Z 17012KT 37/15 A2992 RMK A01 T03700145  RH  026%=      5-min Rain = 0
KMC1 202122Z 16011G17KT 37/14 A2992 RMK A01 T03670144  RH  027%=      5-min Rain = 0
KMC1 202123Z 16013G18KT 37/14 A2992 RMK A01 T03670143  RH  026%=      5-min Rain = 0
KMC1 202124Z 19010G15KT 37/15 A2992 RMK A01 T03670145  RH  027%=      5-min Rain = 0
KMC1 202125Z 18011KT 37/14 A2992 RMK A01 T03690144  RH  026%=      5-min Rain = 0
KMC1 202126Z 15009KT 37/14 A2992 RMK A01 T03680144  RH  026%=      5-min Rain = 0
KMC1 202127Z 15011G16KT 37/15 A2992 RMK A01 T03680145  RH  027%=      5-min Rain = 0
KMC1 202128Z 15011G18KT 37/14 A2992 RMK A01 T03700142  RH  026%=      5-min Rain = 0
KMC1 202129Z 15014KT 37/14 A2992 RMK A01 T03680142  RH  026%=      5-min Rain = 0
KMC1 202130Z 15014G21KT 37/14 A2992 RMK A01 T03660141  RH  026%=      5-min Rain = 0
KMC1 202131Z 17012KT 37/14 A2992 RMK A01 T03660142  RH  026%=      5-min Rain = 0
KMC1 202132Z 18012KT 37/14 A2992 RMK A01 T03650142  RH  026%=      5-min Rain = 0
KMC1 202133Z 18013G19KT 37/14 A2992 RMK A01 T03650139  RH  026%=      5-min Rain = 0
KMC1 202134Z 17010G15KT 37/14 A2992 RMK A01 T03650138  RH  026%=      5-min Rain = 0
KMC1 202135Z 18009KT 37/14 A2992 RMK A01 T03680139  RH  026%=      5-min Rain = 0
KMC1 202136Z 15010KT 37/14 A2992 RMK A01 T03710139  RH  025%=      5-min Rain = 0
KMC1 202137Z 16012KT 37/14 A2992 RMK A01 T03720140  RH  025%=      5-min Rain = 0
KMC1 202138Z 14012G17KT 37/15 A2992 RMK A01 T03690145  RH  026%=      5-min Rain = 0
KMC1 202139Z 15012G18KT 37/15 A2992 RMK A01 T03680146  RH  027%=      5-min Rain = 0
KMC1 202140Z 16012G18KT 37/15 A2992 RMK A01 T03660146  RH  027%=      5-min Rain = 0
KMC1 202141Z 16011KT 37/15 A2992 RMK A01 T03650145  RH  027%=      5-min Rain = 0
KMC1 202142Z 18011KT 36/15 A2992 RMK A01 T03640145  RH  027%=      5-min Rain = 0
KMC1 202143Z 18007KT 36/15 A2992 RMK A01 T03640146  RH  027%=      5-min Rain = 0
KMC1 202144Z 14010G15KT 37/15 A2992 RMK A01 T03660148  RH  027%=      5-min Rain = 0
KMC1 202145Z 15014KT 37/15 A2992 RMK A01 T03670147  RH  027%=      5-min Rain = 0
KMC1 202146Z 15011G17KT 37/15 A2992 RMK A01 T03660147  RH  027%=      5-min Rain = 0
KMC1 202147Z 15015KT 37/15 A2992 RMK A01 T03650147  RH  027%=      5-min Rain = 0
KMC1 202148Z 14011KT 36/15 A2992 RMK A01 T03640147  RH  027%=      5-min Rain = 0
KMC1 202149Z 15010G15KT 36/15 A2992 RMK A01 T03640148  RH  028%=      5-min Rain = 0
KMC1 202150Z 16013G18KT 37/15 A2992 RMK A01 T03660149  RH  028%=      5-min Rain = 0
KMC1 202151Z 16010G15KT 37/15 A2992 RMK A01 T03660148  RH  027%=      5-min Rain = 0
KMC1 202152Z 18015KT 37/15 A2992 RMK A01 T03670147  RH  027%=      5-min Rain = 0
KMC1 202153Z 17012KT 37/14 A2992 RMK A01 T03670144  RH  026%=      5-min Rain = 0
KMC1 202154Z 15012KT 37/14 A2992 RMK A01 T03670143  RH  026%=      5-min Rain = 0
KMC1 202155Z 17010KT 37/15 A2992 RMK A01 T03660145  RH  027%=      5-min Rain = 0
KMC1 202156Z 17014KT 37/15 A2992 RMK A01 T03680148  RH  027%=      5-min Rain = 0
KMC1 202157Z 16013G18KT 37/15 A2992 RMK A01 T03670146  RH  027%=      5-min Rain = 0
KMC1 202158Z 16010KT 37/15 A2992 RMK A01 T03650147  RH  027%=      5-min Rain = 0
KMC1 202159Z 17013G18KT 36/15 A2992 RMK A01 T03640147  RH  027%=      5-min Rain = 0
KMC1 202200Z 16009G16KT 36/15 A2991 RMK A01 T03640145  RH  027%=      5-min Rain = 0
KMC1 202201Z 15007G13KT 37/15 A2991 RMK A01 T03650146  RH  027%=      5-min Rain = 0
KMC1 202202Z 14011G17KT 37/14 A2991 RMK A01 T03690143  RH  026%=      5-min Rain = 0
KMC1 202203Z 14009KT 37/14 A2991 RMK A01 T03680142  RH  026%=      5-min Rain = 0
KMC1 202204Z 14010G15KT 37/14 A2992 RMK A01 T03670142  RH  026%=      5-min Rain = 0
KMC1 202205Z 16007KT 37/14 A2992 RMK A01 T03680141  RH  026%=      5-min Rain = 0
KMC1 202206Z 15007KT 37/14 A2992 RMK A01 T03700140  RH  025%=      5-min Rain = 0
KMC1 202207Z 16006KT 37/14 A2992 RMK A01 T03710139  RH  025%=      5-min Rain = 0
KMC1 202208Z 15006KT 37/14 A2991 RMK A01 T03720144  RH  026%=      5-min Rain = 0
KMC1 202209Z 16011KT 37/15 A2992 RMK A01 T03740146  RH  026%=      5-min Rain = 0
KMC1 202210Z 16011KT 37/15 A2991 RMK A01 T03720145  RH  026%=      5-min Rain = 0
KMC1 202211Z 14010KT 37/15 A2991 RMK A01 T03700145  RH  026%=      5-min Rain = 0
KMC1 202212Z 15010KT 37/15 A2991 RMK A01 T03680145  RH  027%=      5-min Rain = 0
KMC1 202213Z 15010G16KT 37/15 A2991 RMK A01 T03670146  RH  027%=      5-min Rain = 0
KMC1 202214Z 14010G16KT 37/14 A2991 RMK A01 T03680138  RH  025%=      5-min Rain = 0
KMC1 202215Z 15011G18KT 37/14 A2991 RMK A01 T03670137  RH  025%=      5-min Rain = 0
KMC1 202216Z 15012G18KT 37/14 A2991 RMK A01 T03670137  RH  025%=      5-min Rain = 0
KMC1 202217Z 15009G14KT 37/14 A2991 RMK A01 T03660139  RH  026%=      5-min Rain = 0
KMC1 202218Z 15007KT 37/14 A2991 RMK A01 T03660140  RH  026%=      5-min Rain = 0
KMC1 202219Z 15013G19KT 37/14 A2991 RMK A01 T03670140  RH  026%=      5-min Rain = 0
KMC1 202220Z 16011KT 37/14 A2991 RMK A01 T03660137  RH  025%=      5-min Rain = 0
KMC1 202221Z 15010KT 36/14 A2991 RMK A01 T03640138  RH  026%=      5-min Rain = 0
KMC1 202222Z 16011G17KT 36/14 A2991 RMK A01 T03640139  RH  026%=      5-min Rain = 0
KMC1 202223Z 18011G16KT 36/14 A2991 RMK A01 T03640137  RH  026%=      5-min Rain = 0
KMC1 202224Z 17011KT 36/14 A2991 RMK A01 T03640138  RH  026%=      5-min Rain = 0
KMC1 202225Z 17008KT 36/14 A2991 RMK A01 T03640140  RH  026%=      5-min Rain = 0
KMC1 202226Z 17012KT 37/14 A2991 RMK A01 T03650139  RH  026%=      5-min Rain = 0
KMC1 202227Z 16009G14KT 36/14 A2991 RMK A01 T03640139  RH  026%=      5-min Rain = 0
KMC1 202228Z 20009G14KT 36/14 A2991 RMK A01 T03640139  RH  026%=      5-min Rain = 0
KMC1 202229Z 18011G17KT 37/14 A2991 RMK A01 T03650138  RH  026%=      5-min Rain = 0
KMC1 202230Z 17009KT 37/14 A2991 RMK A01 T03650140  RH  026%=      5-min Rain = 0
KMC1 202231Z 16009KT 37/14 A2991 RMK A01 T03660142  RH  026%=      5-min Rain = 0
KMC1 202232Z 16009KT 37/14 A2991 RMK A01 T03670142  RH  026%=      5-min Rain = 0
KMC1 202233Z 15010KT 37/14 A2991 RMK A01 T03670143  RH  026%=      5-min Rain = 0
KMC1 202234Z 17012KT 37/14 A2991 RMK A01 T03680142  RH  026%=      5-min Rain = 0
KMC1 202235Z 18012KT 37/14 A2991 RMK A01 T03660141  RH  026%=      5-min Rain = 0
KMC1 202236Z 17011KT 37/14 A2991 RMK A01 T03650139  RH  026%=      5-min Rain = 0
KMC1 202237Z 17010KT 36/14 A2991 RMK A01 T03630140  RH  026%=      5-min Rain = 0
KMC1 202238Z 16010KT 36/14 A2991 RMK A01 T03630143  RH  027%=      5-min Rain = 0
KMC1 202239Z 16008KT 36/14 A2991 RMK A01 T03640141  RH  026%=      5-min Rain = 0
KMC1 202240Z 17012G17KT 37/14 A2991 RMK A01 T03660138  RH  026%=      5-min Rain = 0
KMC1 202241Z 16012KT 37/14 A2991 RMK A01 T03670135  RH  025%=      5-min Rain = 0
KMC1 202242Z 17008KT 37/14 A2991 RMK A01 T03650137  RH  026%=      5-min Rain = 0
KMC1 202243Z 18009KT 36/14 A2991 RMK A01 T03640139  RH  026%=      5-min Rain = 0
KMC1 202244Z 16010G15KT 37/14 A2991 RMK A01 T03650136  RH  025%=      5-min Rain = 0
KMC1 202245Z 14010KT 37/14 A2991 RMK A01 T03650140  RH  026%=      5-min Rain = 0
KMC1 202246Z 14007KT 37/14 A2991 RMK A01 T03650142  RH  026%=      5-min Rain = 0
KMC1 202247Z 15007KT 36/14 A2991 RMK A01 T03640144  RH  027%=      5-min Rain = 0
KMC1 202248Z 16011G16KT 37/15 A2991 RMK A01 T03660146  RH  027%=      5-min Rain = 0
KMC1 202249Z 15010KT 37/15 A2991 RMK A01 T03660146  RH  027%=      5-min Rain = 0
KMC1 202250Z 16011G18KT 37/15 A2991 RMK A01 T03650147  RH  027%=      5-min Rain = 0
KMC1 202251Z 16012KT 36/14 A2991 RMK A01 T03630144  RH  027%=      5-min Rain = 0
KMC1 202252Z 16009KT 36/14 A2991 RMK A01 T03610144  RH  027%=      5-min Rain = 0
KMC1 202253Z 13008KT 36/14 A2991 RMK A01 T03620143  RH  027%=      5-min Rain = 0
KMC1 202254Z 14009KT 36/14 A2991 RMK A01 T03630142  RH  027%=      5-min Rain = 0
KMC1 202255Z 14011KT 36/14 A2991 RMK A01 T03630140  RH  026%=      5-min Rain = 0
KMC1 202256Z 14012G17KT 36/14 A2991 RMK A01 T03620139  RH  026%=      5-min Rain = 0
KMC1 202257Z 15013KT 36/14 A2991 RMK A01 T03620136  RH  026%=      5-min Rain = 0
KMC1 202258Z 16011G17KT 36/13 A2991 RMK A01 T03620134  RH  025%=      5-min Rain = 0
KMC1 202259Z 17012KT 36/13 A2991 RMK A01 T03630132  RH  025%=      5-min Rain = 0
KMC1 202300Z 16011KT 36/13 A2991 RMK A01 T03620132  RH  025%=      5-min Rain = 0
KMC1 202301Z 16010KT 36/13 A2991 RMK A01 T03610131  RH  025%=      5-min Rain = 0
KMC1 202302Z 16010KT 36/13 A2991 RMK A01 T03620129  RH  025%=      5-min Rain = 0
KMC1 202303Z 16009KT 36/13 A2991 RMK A01 T03610131  RH  025%=      5-min Rain = 0
KMC1 202304Z 15010KT 36/14 A2991 RMK A01 T03620136  RH  026%=      5-min Rain = 0
KMC1 202305Z 16011KT 36/14 A2991 RMK A01 T03630136  RH  026%=      5-min Rain = 0
KMC1 202306Z 15007KT 36/14 A2991 RMK A01 T03620138  RH  026%=      5-min Rain = 0
KMC1 202307Z 14008KT 36/14 A2991 RMK A01 T03630140  RH  026%=      5-min Rain = 0
KMC1 202308Z 14007G12KT 37/14 A2991 RMK A01 T03650141  RH  026%=      5-min Rain = 0
KMC1 202309Z 14008KT 37/14 A2991 RMK A01 T03660140  RH  026%=      5-min Rain = 0
KMC1 202310Z 15007KT 37/14 A2991 RMK A01 T03660141  RH  026%=      5-min Rain = 0
KMC1 202311Z 17012KT 37/14 A2991 RMK A01 T03660139  RH  026%=      5-min Rain = 0
KMC1 202312Z 19008KT 37/14 A2991 RMK A01 T03650140  RH  026%=      5-min Rain = 0
KMC1 202313Z 19008KT 36/14 A2991 RMK A01 T03640137  RH  026%=      5-min Rain = 0
KMC1 202314Z 18011G16KT 36/14 A2991 RMK A01 T03640137  RH  026%=      5-min Rain = 0
KMC1 202315Z 17011KT 36/14 A2991 RMK A01 T03640139  RH  026%=      5-min Rain = 0
KMC1 202316Z 16007KT 36/14 A2991 RMK A01 T03630140  RH  026%=      5-min Rain = 0
KMC1 202317Z 15011G18KT 36/14 A2991 RMK A01 T03630143  RH  027%=      5-min Rain = 0
KMC1 202318Z 16010G15KT 36/14 A2991 RMK A01 T03630143  RH  027%=      5-min Rain = 0
KMC1 202319Z 15009KT 36/14 A2991 RMK A01 T03620144  RH  027%=      5-min Rain = 0
KMC1 202320Z 16006KT 36/15 A2991 RMK A01 T03620145  RH  027%=      5-min Rain = 0
KMC1 202321Z 15009KT 36/15 A2991 RMK A01 T03620145  RH  027%=      5-min Rain = 0
KMC1 202322Z 14008KT 36/14 A299 RMK A01 T03630144  RH  027%=      5-min Rain = 0
KMC1 202323Z 16006KT 36/14 A299 RMK A01 T03640144  RH  027%=      5-min Rain = 0
KMC1 202324Z 17006G11KT 37/15 A299 RMK A01 T03650146  RH  027%=      5-min Rain = 0
KMC1 202325Z 19009KT 37/14 A299 RMK A01 T03660143  RH  027%=      5-min Rain = 0
KMC1 202326Z 18011KT 37/14 A299 RMK A01 T03660138  RH  026%=      5-min Rain = 0
KMC1 202327Z 19011G17KT 37/14 A299 RMK A01 T03650135  RH  025%=      5-min Rain = 0
KMC1 202328Z 18010KT 36/13 A299 RMK A01 T03630132  RH  025%=      5-min Rain = 0
KMC1 202329Z 17012G17KT 36/13 A299 RMK A01 T03610133  RH  026%=      5-min Rain = 0
KMC1 202330Z 17011KT 36/13 A299 RMK A01 T03590133  RH  026%=      5-min Rain = 0
KMC1 202331Z 16010KT 36/14 A299 RMK A01 T03590135  RH  026%=      5-min Rain = 0
KMC1 202332Z 16010G15KT 36/14 A299 RMK A01 T03590138  RH  027%=      5-min Rain = 0
KMC1 202333Z 16011KT 36/14 A299 RMK A01 T03590139  RH  027%=      5-min Rain = 0
KMC1 202334Z 17010KT 36/14 A299 RMK A01 T03590139  RH  027%=      5-min Rain = 0
KMC1 202335Z 16012G18KT 36/14 A299 RMK A01 T03590140  RH  027%=      5-min Rain = 0
KMC1 202336Z 17011KT 36/14 A299 RMK A01 T03580141  RH  027%=      5-min Rain = 0
KMC1 202337Z 17010KT 36/14 A299 RMK A01 T03580140  RH  027%=      5-min Rain = 0
KMC1 202338Z 16010KT 36/14 A299 RMK A01 T03590139  RH  027%=      5-min Rain = 0
KMC1 202339Z 17009KT 36/14 A299 RMK A01 T03590139  RH  027%=      5-min Rain = 0
KMC1 202340Z 16010KT 36/14 A299 RMK A01 T03590137  RH  026%=      5-min Rain = 0
KMC1 202341Z 16009KT 36/14 A299 RMK A01 T03590136  RH  026%=      5-min Rain = 0
KMC1 202342Z 16009KT 36/14 A299 RMK A01 T03590137  RH  027%=      5-min Rain = 0
KMC1 202343Z 16010KT 36/14 A299 RMK A01 T03590136  RH  026%=      5-min Rain = 0
KMC1 202344Z 16011KT 36/14 A299 RMK A01 T03580135  RH  026%=      5-min Rain = 0
KMC1 202345Z 15007KT 36/14 A299 RMK A01 T03570136  RH  027%=      5-min Rain = 0
KMC1 202346Z 17009KT 36/14 A299 RMK A01 T03580136  RH  027%=      5-min Rain = 0
KMC1 202347Z 16008KT 36/13 A299 RMK A01 T03580134  RH  026%=      5-min Rain = 0
KMC1 202348Z 16006KT 36/14 A299 RMK A01 T03580136  RH  027%=      5-min Rain = 0
KMC1 202349Z 16006KT 36/14 A299 RMK A01 T03590138  RH  027%=      5-min Rain = 0
KMC1 202350Z 17006KT 36/14 A299 RMK A01 T03600138  RH  027%=      5-min Rain = 0
KMC1 202351Z 16006G13KT 36/14 A299 RMK A01 T03610139  RH  027%=      5-min Rain = 0
KMC1 202352Z 18012KT 36/14 A299 RMK A01 T03610135  RH  026%=      5-min Rain = 0
KMC1 202353Z 17011KT 36/14 A299 RMK A01 T03600135  RH  026%=      5-min Rain = 0
KMC1 202354Z 17010KT 36/14 A299 RMK A01 T03570135  RH  026%=      5-min Rain = 0
KMC1 202355Z 16008KT 36/14 A299 RMK A01 T03570136  RH  027%=      5-min Rain = 0
KMC1 202356Z 16008KT 36/14 A299 RMK A01 T03560138  RH  027%=      5-min Rain = 0
KMC1 202357Z 16010KT 36/14 A299 RMK A01 T03560137  RH  027%=      5-min Rain = 0
KMC1 202358Z 16008KT 36/14 A299 RMK A01 T03550139  RH  027%=      5-min Rain = 0
KMC1 202359Z 17009KT 36/14 A299 RMK A01 T03550141  RH  028%=      5-min Rain = 0
KMC1 210000Z 16007G13KT 36/14 A299 RMK A01 T03550142  RH  028%=      5-min Rain = 0
KMC1 210001Z 15006KT 36/14 A299 RMK A01 T03560144  RH  028%=      5-min Rain = 0
KMC1 210002Z 15009KT 36/15 A299 RMK A01 T03560145  RH  028%=      5-min Rain = 0
KMC1 210003Z 16005KT 36/14 A299 RMK A01 T03570143  RH  028%=      5-min Rain = 0
KMC1 210004Z 16007KT 36/14 A299 RMK A01 T03580143  RH  028%=      5-min Rain = 0
KMC1 210005Z 16009G15KT 36/14 A299 RMK A01 T03570141  RH  027%=      5-min Rain = 0
KMC1 210006Z 19009KT 36/14 A299 RMK A01 T03570140  RH  027%=      5-min Rain = 0
KMC1 210007Z 17009G14KT 36/14 A299 RMK A01 T03550141  RH  028%=      5-min Rain = 0
KMC1 210008Z 18011KT 36/14 A299 RMK A01 T03550141  RH  028%=      5-min Rain = 0
KMC1 210009Z 17009KT 35/14 A299 RMK A01 T03540141  RH  028%=      5-min Rain = 0
KMC1 210010Z 17006KT 35/14 A299 RMK A01 T03530142  RH  028%=      5-min Rain = 0
KMC1 210011Z 16005KT 35/15 A299 RMK A01 T03530145  RH  029%=      5-min Rain = 0
KMC1 210012Z 15007G12KT 36/15 A299 RMK A01 T03550147  RH  029%=      5-min Rain = 0
KMC1 210013Z 14006G11KT 36/15 A299 RMK A01 T03560147  RH  029%=      5-min Rain = 0
KMC1 210014Z 17005KT 36/15 A299 RMK A01 T03560148  RH  029%=      5-min Rain = 0
KMC1 210015Z 17008G13KT 36/15 A299 RMK A01 T03560147  RH  029%=      5-min Rain = 0
KMC1 210016Z 16008KT 35/15 A299 RMK A01 T03540146  RH  029%=      5-min Rain = 0
KMC1 210017Z 17010G15KT 35/15 A299 RMK A01 T03530146  RH  029%=      5-min Rain = 0
KMC1 210018Z 18010KT 35/15 A299 RMK A01 T03520145  RH  029%=      5-min Rain = 0
KMC1 210019Z 17010KT 35/15 A2991 RMK A01 T03520145  RH  029%=      5-min Rain = 0
KMC1 210020Z 17007KT 35/15 A2991 RMK A01 T03510145  RH  029%=      5-min Rain = 0
KMC1 210021Z 18008G14KT 35/14 A2991 RMK A01 T03510144  RH  029%=      5-min Rain = 0
KMC1 210022Z 18007KT 35/14 A2991 RMK A01 T03510143  RH  029%=      5-min Rain = 0
KMC1 210023Z 17006KT 35/14 A2991 RMK A01 T03510143  RH  029%=      5-min Rain = 0
KMC1 210024Z 17008KT 35/14 A2991 RMK A01 T03520143  RH  029%=      5-min Rain = 0
KMC1 210025Z 17009KT 35/14 A2991 RMK A01 T03520141  RH  028%=      5-min Rain = 0
KMC1 210026Z 17010KT 35/14 A2991 RMK A01 T03510139  RH  028%=      5-min Rain = 0
KMC1 210027Z 17008KT 35/14 A2991 RMK A01 T03510140  RH  028%=      5-min Rain = 0
KMC1 210028Z 17010KT 35/14 A2991 RMK A01 T03500140  RH  028%=      5-min Rain = 0
KMC1 210029Z 17012KT 35/14 A2991 RMK A01 T03490140  RH  028%=      5-min Rain = 0
KMC1 210030Z 16010KT 35/14 A2991 RMK A01 T03490141  RH  029%=      5-min Rain = 0
KMC1 210031Z 17008KT 35/14 A2991 RMK A01 T03480141  RH  029%=      5-min Rain = 0
KMC1 210032Z 16009G14KT 35/14 A2991 RMK A01 T03470142  RH  029%=      5-min Rain = 0
KMC1 210033Z 16010KT 35/14 A2991 RMK A01 T03470142  RH  029%=      5-min Rain = 0
KMC1 210034Z 16007KT 35/14 A2991 RMK A01 T03470143  RH  030%=      5-min Rain = 0
KMC1 210035Z 16007KT 35/14 A2991 RMK A01 T03460144  RH  030%=      5-min Rain = 0
KMC1 210036Z 16007KT 35/15 A2991 RMK A01 T03470145  RH  030%=      5-min Rain = 0
KMC1 210037Z 16008KT 35/15 A2991 RMK A01 T03460146  RH  030%=      5-min Rain = 0
KMC1 210038Z 16006KT 35/15 A2991 RMK A01 T03460146  RH  030%=      5-min Rain = 0
KMC1 210039Z 16006G11KT 35/15 A2991 RMK A01 T03460146  RH  030%=      5-min Rain = 0
KMC1 210040Z 17006KT 35/15 A2991 RMK A01 T03460147  RH  030%=      5-min Rain = 0
KMC1 210041Z 17007KT 35/15 A2991 RMK A01 T03460147  RH  030%=      5-min Rain = 0
KMC1 210042Z 17006KT 35/15 A2991 RMK A01 T03460147  RH  031%=      5-min Rain = 0
KMC1 210043Z 16006KT 35/15 A2991 RMK A01 T03450148  RH  031%=      5-min Rain = 0
KMC1 210044Z 16011KT 35/15 A2991 RMK A01 T03450148  RH  031%=      5-min Rain = 0
KMC1 210045Z 15010KT 34/15 A2991 RMK A01 T03440146  RH  030%=      5-min Rain = 0
KMC1 210046Z 16010KT 34/15 A2991 RMK A01 T03430145  RH  030%=      5-min Rain = 0
KMC1 210047Z 16007KT 34/15 A2991 RMK A01 T03430145  RH  031%=      5-min Rain = 0
KMC1 210048Z 16007KT 34/15 A2991 RMK A01 T03430147  RH  031%=      5-min Rain = 0
KMC1 210049Z 16005KT 34/15 A2991 RMK A01 T03420147  RH  031%=      5-min Rain = 0
KMC1 210050Z 16005KT 34/15 A2991 RMK A01 T03420148  RH  031%=      5-min Rain = 0
KMC1 210051Z 17005KT 34/15 A2991 RMK A01 T03420148  RH  031%=      5-min Rain = 0
KMC1 210052Z 18007KT 34/15 A2991 RMK A01 T03420148  RH  031%=      5-min Rain = 0
KMC1 210053Z 16004KT 34/15 A2991 RMK A01 T03410148  RH  031%=      5-min Rain = 0
KMC1 210054Z 16005KT 34/15 A2991 RMK A01 T03410150  RH  032%=      5-min Rain = 0
KMC1 210055Z 18006KT 34/15 A2991 RMK A01 T03410150  RH  032%=      5-min Rain = 0
KMC1 210056Z 16004KT 34/15 A2991 RMK A01 T03400149  RH  032%=      5-min Rain = 0
KMC1 210057Z 18005KT 34/15 A2991 RMK A01 T03400150  RH  032%=      5-min Rain = 0
KMC1 210058Z 16004KT 34/15 A2991 RMK A01 T03390151  RH  032%=      5-min Rain = 0
KMC1 210059Z 17005KT 34/15 A2991 RMK A01 T03390151  RH  032%=      5-min Rain = 0
KMC1 210100Z 16005KT 34/15 A2991 RMK A01 T03380150  RH  032%=      5-min Rain = 0
KMC1 210101Z 17007KT 34/15 A2991 RMK A01 T03380150  RH  032%=      5-min Rain = 0
KMC1 210102Z 17007KT 34/15 A2991 RMK A01 T03370149  RH  032%=      5-min Rain = 0
KMC1 210103Z 16008KT 34/15 A2991 RMK A01 T03360149  RH  032%=      5-min Rain = 0
KMC1 210104Z 16006KT 34/15 A2991 RMK A01 T03360149  RH  033%=      5-min Rain = 0
KMC1 210105Z 17006KT 34/15 A2991 RMK A01 T03350149  RH  033%=      5-min Rain = 0
KMC1 210106Z 16005KT 34/15 A2991 RMK A01 T03350150  RH  033%=      5-min Rain = 0
KMC1 210107Z 16005KT 33/15 A2991 RMK A01 T03340149  RH  033%=      5-min Rain = 0
KMC1 210108Z 16004KT 33/15 A2991 RMK A01 T03340149  RH  033%=      5-min Rain = 0
KMC1 210109Z 16004KT 33/15 A2991 RMK A01 T03330149  RH  033%=      5-min Rain = 0
KMC1 210110Z 15006KT 33/15 A2991 RMK A01 T03330149  RH  033%=      5-min Rain = 0
KMC1 210111Z 16005KT 33/15 A2991 RMK A01 T03320149  RH  033%=      5-min Rain = 0
KMC1 210112Z 16005KT 33/15 A2991 RMK A01 T03310150  RH  034%=      5-min Rain = 0
KMC1 210113Z 16005KT 33/15 A2991 RMK A01 T03310149  RH  033%=      5-min Rain = 0
KMC1 210114Z 15005KT 33/15 A2991 RMK A01 T03300149  RH  034%=      5-min Rain = 0
KMC1 210115Z 16005KT 33/15 A2991 RMK A01 T03300149  RH  034%=      5-min Rain = 0
KMC1 210116Z 16005KT 33/15 A2991 RMK A01 T03290150  RH  034%=      5-min Rain = 0
KMC1 210117Z 16005KT 33/15 A2991 RMK A01 T03280149  RH  034%=      5-min Rain = 0
KMC1 210118Z 16005KT 33/15 A2991 RMK A01 T03270149  RH  034%=      5-min Rain = 0
KMC1 210119Z 15005KT 33/15 A2991 RMK A01 T03270149  RH  034%=      5-min Rain = 0
KMC1 210120Z 15005KT 33/15 A2991 RMK A01 T03260149  RH  034%=      5-min Rain = 0
KMC1 210121Z 15005KT 33/15 A2991 RMK A01 T03260149  RH  034%=      5-min Rain = 0
KMC1 210122Z 15004KT 33/15 A2991 RMK A01 T03250149  RH  034%=      5-min Rain = 0
KMC1 210123Z 16004KT 33/15 A2991 RMK A01 T03250150  RH  035%=      5-min Rain = 0
KMC1 210124Z 16004KT 32/15 A2991 RMK A01 T03230149  RH  035%=      5-min Rain = 0
KMC1 210125Z 15004KT 32/15 A2991 RMK A01 T03230150  RH  035%=      5-min Rain = 0
KMC1 210126Z 15005KT 32/15 A2991 RMK A01 T03220150  RH  035%=      5-min Rain = 0
KMC1 210127Z 15004KT 32/15 A2991 RMK A01 T03210150  RH  036%=      5-min Rain = 0
KMC1 210128Z 16005KT 32/15 A2991 RMK A01 T03210151  RH  036%=      5-min Rain = 0
KMC1 210129Z 15005KT 32/15 A2991 RMK A01 T03200152  RH  036%=      5-min Rain = 0
KMC1 210130Z 15006KT 32/15 A2992 RMK A01 T03200152  RH  036%=      5-min Rain = 0
KMC1 210131Z 16005KT 32/15 A2992 RMK A01 T03190152  RH  037%=      5-min Rain = 0
KMC1 210132Z 16006KT 32/15 A2992 RMK A01 T03180152  RH  037%=      5-min Rain = 0
KMC1 210133Z 15007KT 32/15 A2992 RMK A01 T03180152  RH  037%=      5-min Rain = 0
KMC1 210134Z 15005KT 32/15 A2992 RMK A01 T03180152  RH  037%=      5-min Rain = 0
KMC1 210135Z 14005KT 32/15 A2992 RMK A01 T03180153  RH  037%=      5-min Rain = 0
KMC1 210136Z 15005KT 32/15 A2992 RMK A01 T03180153  RH  037%=      5-min Rain = 0
KMC1 210137Z 15005KT 32/15 A2992 RMK A01 T03170153  RH  037%=      5-min Rain = 0
KMC1 210138Z 14005KT 32/15 A2992 RMK A01 T03160153  RH  037%=      5-min Rain = 0
KMC1 210139Z 15004KT 32/15 A2992 RMK A01 T03160153  RH  037%=      5-min Rain = 0
KMC1 210140Z 15005KT 32/15 A2992 RMK A01 T03150153  RH  038%=      5-min Rain = 0
KMC1 210141Z 15007KT 32/15 A2992 RMK A01 T03150153  RH  038%=      5-min Rain = 0
KMC1 210142Z 14005KT 31/15 A2992 RMK A01 T03140153  RH  038%=      5-min Rain = 0
KMC1 210143Z 14006KT 31/15 A2992 RMK A01 T03140153  RH  038%=      5-min Rain = 0
KMC1 210144Z 14006KT 31/15 A2992 RMK A01 T03140153  RH  038%=      5-min Rain = 0
KMC1 210145Z 14006KT 31/15 A2992 RMK A01 T03140153  RH  038%=      5-min Rain = 0
KMC1 210146Z 13007KT 31/15 A2992 RMK A01 T03140153  RH  038%=      5-min Rain = 0
KMC1 210147Z 14006KT 31/15 A2992 RMK A01 T03140153  RH  038%=      5-min Rain = 0
KMC1 210148Z 14006KT 31/15 A2992 RMK A01 T03140154  RH  038%=      5-min Rain = 0
KMC1 210149Z 14007KT 31/15 A2992 RMK A01 T03140153  RH  038%=      5-min Rain = 0
KMC1 210150Z 14006KT 31/15 A2992 RMK A01 T03140153  RH  038%=      5-min Rain = 0
KMC1 210151Z 14005KT 31/15 A2992 RMK A01 T03140154  RH  038%=      5-min Rain = 0
KMC1 210152Z 15007KT 31/15 A2992 RMK A01 T03130154  RH  038%=      5-min Rain = 0
KMC1 210153Z 14005KT 31/15 A2992 RMK A01 T03120154  RH  038%=      5-min Rain = 0
KMC1 210154Z 14005KT 31/15 A2992 RMK A01 T03120154  RH  039%=      5-min Rain = 0
KMC1 210155Z 14005KT 31/15 A2992 RMK A01 T03110154  RH  039%=      5-min Rain = 0
KMC1 210156Z 14006KT 31/15 A2992 RMK A01 T03110154  RH  039%=      5-min Rain = 0
KMC1 210157Z 14005KT 31/15 A2992 RMK A01 T03100154  RH  039%=      5-min Rain = 0
KMC1 210158Z 14005KT 31/15 A2992 RMK A01 T03090154  RH  039%=      5-min Rain = 0
KMC1 210159Z 14006KT 31/15 A2992 RMK A01 T03090154  RH  039%=      5-min Rain = 0
KMC1 210200Z 14006KT 31/15 A2992 RMK A01 T03080154  RH  039%=      5-min Rain = 0
KMC1 210201Z 14006KT 31/15 A2992 RMK A01 T03070154  RH  039%=      5-min Rain = 0
KMC1 210202Z 14005KT 31/15 A2992 RMK A01 T03070154  RH  040%=      5-min Rain = 0
KMC1 210203Z 14005KT 31/15 A2992 RMK A01 T03070154  RH  040%=      5-min Rain = 0
KMC1 210204Z 14007KT 31/15 A2992 RMK A01 T03070154  RH  040%=      5-min Rain = 0
KMC1 210205Z 14007KT 31/15 A2992 RMK A01 T03060154  RH  040%=      5-min Rain = 0
KMC1 210206Z 14006KT 31/15 A2992 RMK A01 T03060154  RH  040%=      5-min Rain = 0
KMC1 210207Z 14007KT 31/15 A2992 RMK A01 T03060154  RH  040%=      5-min Rain = 0
KMC1 210208Z 14005KT 31/15 A2992 RMK A01 T03060154  RH  040%=      5-min Rain = 0
KMC1 210209Z 14006KT 31/15 A2992 RMK A01 T03060154  RH  040%=      5-min Rain = 0
KMC1 210210Z 14004KT 31/16 A2992 RMK A01 T03060155  RH  040%=      5-min Rain = 0
KMC1 210211Z 14006KT 31/16 A2992 RMK A01 T03050155  RH  040%=      5-min Rain = 0
KMC1 210212Z 14006KT 30/15 A2992 RMK A01 T03040154  RH  040%=      5-min Rain = 0
KMC1 210213Z 14006KT 30/16 A2992 RMK A01 T03040155  RH  040%=      5-min Rain = 0
KMC1 210214Z 14006KT 30/15 A2992 RMK A01 T03040154  RH  040%=      5-min Rain = 0
KMC1 210215Z 14005KT 30/15 A2992 RMK A01 T03040154  RH  040%=      5-min Rain = 0
KMC1 210216Z 14005KT 30/15 A2992 RMK A01 T03030154  RH  040%=      5-min Rain = 0
KMC1 210217Z 14006KT 30/15 A2992 RMK A01 T03030154  RH  040%=      5-min Rain = 0
KMC1 210218Z 15005KT 30/15 A2992 RMK A01 T03030154  RH  041%=      5-min Rain = 0
KMC1 210219Z 14006KT 30/15 A2992 RMK A01 T03030154  RH  041%=      5-min Rain = 0
KMC1 210220Z 15006KT 30/15 A2992 RMK A01 T03020154  RH  041%=      5-min Rain = 0
KMC1 210221Z 14007KT 30/15 A2992 RMK A01 T03020154  RH  041%=      5-min Rain = 0
KMC1 210222Z 15006KT 30/15 A2992 RMK A01 T03020153  RH  040%=      5-min Rain = 0
KMC1 210223Z 15006KT 30/15 A2992 RMK A01 T03020153  RH  040%=      5-min Rain = 0
KMC1 210224Z 15007KT 30/15 A2992 RMK A01 T03020153  RH  040%=      5-min Rain = 0
KMC1 210225Z 14006KT 30/15 A2992 RMK A01 T03020153  RH  040%=      5-min Rain = 0
KMC1 210226Z 14006KT 30/15 A2992 RMK A01 T03030153  RH  040%=      5-min Rain = 0
KMC1 210227Z 15006KT 30/15 A2992 RMK A01 T03020153  RH  040%=      5-min Rain = 0
KMC1 210228Z 15006KT 30/15 A2993 RMK A01 T03020153  RH  040%=      5-min Rain = 0
KMC1 210229Z 15007KT 30/15 A2993 RMK A01 T03020152  RH  040%=      5-min Rain = 0
KMC1 210230Z 15007KT 30/15 A2993 RMK A01 T03020153  RH  040%=      5-min Rain = 0
KMC1 210231Z 14006KT 30/15 A2993 RMK A01 T03020153  RH  040%=      5-min Rain = 0
KMC1 210232Z 14005KT 30/15 A2993 RMK A01 T03020152  RH  040%=      5-min Rain = 0
KMC1 210233Z 15005KT 30/15 A2993 RMK A01 T03020153  RH  040%=      5-min Rain = 0
KMC1 210234Z 14006KT 30/15 A2993 RMK A01 T03010152  RH  040%=      5-min Rain = 0
KMC1 210235Z 15005KT 30/15 A2993 RMK A01 T03010153  RH  041%=      5-min Rain = 0
KMC1 210236Z 14007KT 30/15 A2993 RMK A01 T03000152  RH  041%=      5-min Rain = 0
KMC1 210237Z 15005KT 30/15 A2993 RMK A01 T03010153  RH  041%=      5-min Rain = 0
KMC1 210238Z 14005KT 30/15 A2993 RMK A01 T03010152  RH  041%=      5-min Rain = 0
KMC1 210239Z 15005KT 30/15 A2993 RMK A01 T03000152  RH  041%=      5-min Rain = 0
KMC1 210240Z 15005KT 30/15 A2993 RMK A01 T03000152  RH  041%=      5-min Rain = 0
KMC1 210241Z 14007KT 30/15 A2993 RMK A01 T03000152  RH  041%=      5-min Rain = 0
KMC1 210242Z 14006KT 30/15 A2993 RMK A01 T03000152  RH  041%=      5-min Rain = 0
KMC1 210243Z 14007KT 30/15 A2993 RMK A01 T03000152  RH  041%=      5-min Rain = 0
KMC1 210244Z 14006KT 30/15 A2993 RMK A01 T03000152  RH  041%=      5-min Rain = 0
KMC1 210245Z 15007KT 30/15 A2993 RMK A01 T03000152  RH  041%=      5-min Rain = 0
KMC1 210246Z 14006KT 30/15 A2993 RMK A01 T03000152  RH  041%=      5-min Rain = 0
KMC1 210247Z 15006KT 30/15 A2993 RMK A01 T03000151  RH  041%=      5-min Rain = 0
KMC1 210248Z 14005KT 30/15 A2993 RMK A01 T03000152  RH  041%=      5-min Rain = 0
KMC1 210249Z 14007KT 30/15 A2993 RMK A01 T02990152  RH  041%=      5-min Rain = 0
KMC1 210250Z 14006KT 30/15 A2993 RMK A01 T02990152  RH  041%=      5-min Rain = 0
KMC1 210251Z 14006KT 30/15 A2993 RMK A01 T02980152  RH  041%=      5-min Rain = 0
KMC1 210252Z 14007KT 30/15 A2993 RMK A01 T02980152  RH  041%=      5-min Rain = 0
KMC1 210253Z 14006KT 30/15 A2993 RMK A01 T02980152  RH  041%=      5-min Rain = 0
KMC1 210254Z 14004KT 30/15 A2993 RMK A01 T02970152  RH  041%=      5-min Rain = 0
KMC1 210255Z 14006KT 30/15 A2993 RMK A01 T02970152  RH  041%=      5-min Rain = 0
KMC1 210256Z 14006KT 30/15 A2993 RMK A01 T02970152  RH  041%=      5-min Rain = 0
KMC1 210257Z 14005KT 30/15 A2993 RMK A01 T02960152  RH  042%=      5-min Rain = 0
KMC1 210258Z 14006KT 30/15 A2994 RMK A01 T02960152  RH  042%=      5-min Rain = 0
KMC1 210259Z 14006KT 30/15 A2994 RMK A01 T02950152  RH  042%=      5-min Rain = 0
KMC1 210300Z 13006KT 30/15 A2994 RMK A01 T02950152  RH  042%=      5-min Rain = 0
KMC1 210301Z 13006KT 30/15 A2994 RMK A01 T02950152  RH  042%=      5-min Rain = 0
KMC1 210302Z 13005KT 30/15 A2994 RMK A01 T02950152  RH  042%=      5-min Rain = 0
KMC1 210303Z 13005KT 29/15 A2994 RMK A01 T02940152  RH  042%=      5-min Rain = 0
KMC1 210304Z 13006KT 29/15 A2994 RMK A01 T02930152  RH  042%=      5-min Rain = 0
KMC1 210305Z 14006KT 29/15 A2994 RMK A01 T02930152  RH  042%=      5-min Rain = 0
KMC1 210306Z 13006KT 29/15 A2994 RMK A01 T02920152  RH  042%=      5-min Rain = 0
KMC1 210307Z 13006KT 29/15 A2994 RMK A01 T02930152  RH  042%=      5-min Rain = 0
KMC1 210308Z 13006KT 29/15 A2994 RMK A01 T02920152  RH  043%=      5-min Rain = 0
KMC1 210309Z 13006KT 29/15 A2994 RMK A01 T02920152  RH  043%=      5-min Rain = 0
KMC1 210310Z 13005KT 29/15 A2994 RMK A01 T02910152  RH  043%=      5-min Rain = 0
KMC1 210311Z 13006KT 29/15 A2994 RMK A01 T02910153  RH  043%=      5-min Rain = 0
KMC1 210312Z 13005KT 29/15 A2994 RMK A01 T02910152  RH  043%=      5-min Rain = 0
KMC1 210313Z 13007KT 29/15 A2994 RMK A01 T02900152  RH  043%=      5-min Rain = 0
KMC1 210314Z 13007KT 29/15 A2994 RMK A01 T02900153  RH  043%=      5-min Rain = 0
KMC1 210315Z 13006KT 29/15 A2994 RMK A01 T02900153  RH  043%=      5-min Rain = 0
KMC1 210316Z 13007KT 29/15 A2994 RMK A01 T02900153  RH  043%=      5-min Rain = 0
KMC1 210317Z 13005KT 29/15 A2994 RMK A01 T02900153  RH  043%=      5-min Rain = 0
KMC1 210318Z 13007KT 29/15 A2994 RMK A01 T02900153  RH  043%=      5-min Rain = 0
KMC1 210319Z 13007KT 29/15 A2994 RMK A01 T02900153  RH  043%=      5-min Rain = 0
KMC1 210320Z 13007KT 29/15 A2994 RMK A01 T02900153  RH  043%=      5-min Rain = 0
KMC1 210321Z 13007KT 29/15 A2994 RMK A01 T02910154  RH  043%=      5-min Rain = 0
KMC1 210322Z 13006KT 29/15 A2994 RMK A01 T02910154  RH  043%=      5-min Rain = 0
KMC1 210323Z 12006KT 29/15 A2995 RMK A01 T02910154  RH  043%=      5-min Rain = 0
KMC1 210324Z 13006KT 29/15 A2995 RMK A01 T02900154  RH  044%=      5-min Rain = 0
KMC1 210325Z 13007KT 29/16 A2995 RMK A01 T02900155  RH  044%=      5-min Rain = 0
KMC1 210326Z 13006KT 29/15 A2995 RMK A01 T02900154  RH  044%=      5-min Rain = 0
KMC1 210327Z 13006KT 29/16 A2995 RMK A01 T02900155  RH  044%=      5-min Rain = 0
KMC1 210328Z 13006KT 29/16 A2995 RMK A01 T02890155  RH  044%=      5-min Rain = 0
KMC1 210329Z 13006KT 29/15 A2995 RMK A01 T02880154  RH  044%=      5-min Rain = 0
KMC1 210330Z 12006KT 29/16 A2995 RMK A01 T02880155  RH  044%=      5-min Rain = 0
KMC1 210331Z 13006KT 29/16 A2995 RMK A01 T02880155  RH  044%=      5-min Rain = 0
KMC1 210332Z 13006KT 29/16 A2995 RMK A01 T02870155  RH  045%=      5-min Rain = 0
KMC1 210333Z 12006KT 29/16 A2995 RMK A01 T02870155  RH  045%=      5-min Rain = 0
KMC1 210334Z 13006KT 29/16 A2995 RMK A01 T02870155  RH  045%=      5-min Rain = 0
KMC1 210335Z 13006KT 29/16 A2995 RMK A01 T02860155  RH  045%=      5-min Rain = 0
KMC1 210336Z 13005KT 29/16 A2995 RMK A01 T02860155  RH  045%=      5-min Rain = 0
KMC1 210337Z 13005KT 29/16 A2995 RMK A01 T02850155  RH  045%=      5-min Rain = 0
KMC1 210338Z 13006KT 29/16 A2995 RMK A01 T02850155  RH  045%=      5-min Rain = 0
KMC1 210339Z 13005KT 29/16 A2995 RMK A01 T02850155  RH  045%=      5-min Rain = 0
KMC1 210340Z 13005KT 29/16 A2995 RMK A01 T02850156  RH  045%=      5-min Rain = 0
KMC1 210341Z 13005KT 28/16 A2995 RMK A01 T02840155  RH  046%=      5-min Rain = 0
KMC1 210342Z 13006KT 28/16 A2995 RMK A01 T02840156  RH  046%=      5-min Rain = 0
KMC1 210343Z 13005KT 28/16 A2995 RMK A01 T02830156  RH  046%=      5-min Rain = 0
KMC1 210344Z 13006KT 28/16 A2995 RMK A01 T02830156  RH  046%=      5-min Rain = 0
KMC1 210345Z 12006KT 28/16 A2995 RMK A01 T02830156  RH  046%=      5-min Rain = 0
KMC1 210346Z 13006KT 28/16 A2995 RMK A01 T02830156  RH  046%=      5-min Rain = 0
KMC1 210347Z 13006KT 28/16 A2995 RMK A01 T02820156  RH  046%=      5-min Rain = 0
KMC1 210348Z 12006KT 28/16 A2995 RMK A01 T02820157  RH  046%=      5-min Rain = 0
KMC1 210349Z 13006KT 28/16 A2995 RMK A01 T02830157  RH  046%=      5-min Rain = 0
KMC1 210350Z 13007KT 28/16 A2995 RMK A01 T02820157  RH  046%=      5-min Rain = 0
KMC1 210351Z 13006KT 28/16 A2995 RMK A01 T02830157  RH  046%=      5-min Rain = 0
KMC1 210352Z 13008KT 28/16 A2995 RMK A01 T02830157  RH  046%=      5-min Rain = 0
KMC1 210353Z 13007KT 28/16 A2995 RMK A01 T02830158  RH  047%=      5-min Rain = 0
KMC1 210354Z 13006KT 28/16 A2995 RMK A01 T02830158  RH  047%=      5-min Rain = 0
KMC1 210355Z 13006KT 28/16 A2995 RMK A01 T02830158  RH  047%=      5-min Rain = 0
KMC1 210356Z 13007KT 28/16 A2995 RMK A01 T02830158  RH  047%=      5-min Rain = 0
KMC1 210357Z 13006KT 28/16 A2995 RMK A01 T02830159  RH  047%=      5-min Rain = 0
KMC1 210358Z 13007KT 28/16 A2996 RMK A01 T02830159  RH  047%=      5-min Rain = 0
KMC1 210359Z 13006KT 28/16 A2996 RMK A01 T02830159  RH  047%=      5-min Rain = 0
KMC1 210400Z 13007KT 28/16 A2996 RMK A01 T02830159  RH  047%=      5-min Rain = 0
KMC1 210401Z 12007KT 28/16 A2996 RMK A01 T02830159  RH  047%=      5-min Rain = 0
KMC1 210402Z 13007KT 28/16 A2996 RMK A01 T02830159  RH  047%=      5-min Rain = 0
KMC1 210403Z 13007KT 28/16 A2996 RMK A01 T02820159  RH  047%=      5-min Rain = 0
KMC1 210404Z 12008KT 28/16 A2996 RMK A01 T02820159  RH  047%=      5-min Rain = 0
KMC1 210405Z 13008KT 28/16 A2996 RMK A01 T02820160  RH  047%=      5-min Rain = 0
KMC1 210406Z 13007KT 28/16 A2996 RMK A01 T02820160  RH  047%=      5-min Rain = 0
KMC1 210407Z 12007KT 28/16 A2996 RMK A01 T02820160  RH  047%=      5-min Rain = 0
KMC1 210408Z 14008KT 28/16 A2996 RMK A01 T02820160  RH  048%=      5-min Rain = 0
KMC1 210409Z 13007KT 28/16 A2996 RMK A01 T02820160  RH  048%=      5-min Rain = 0
KMC1 210410Z 13007KT 28/16 A2996 RMK A01 T02820160  RH  048%=      5-min Rain = 0
KMC1 210411Z 13007KT 28/16 A2996 RMK A01 T02810160  RH  048%=      5-min Rain = 0
KMC1 210412Z 12007KT 28/16 A2996 RMK A01 T02820160  RH  048%=      5-min Rain = 0
KMC1 210413Z 12008KT 28/16 A2996 RMK A01 T02820161  RH  048%=      5-min Rain = 0
KMC1 210414Z 12006KT 28/16 A2996 RMK A01 T02820161  RH  048%=      5-min Rain = 0
KMC1 210415Z 12006KT 28/16 A2996 RMK A01 T02820161  RH  048%=      5-min Rain = 0
KMC1 210416Z 12006KT 28/16 A2996 RMK A01 T02810161  RH  048%=      5-min Rain = 0
KMC1 210417Z 13006KT 28/16 A2996 RMK A01 T02800160  RH  048%=      5-min Rain = 0
KMC1 210418Z 13008KT 28/16 A2996 RMK A01 T02800161  RH  048%=      5-min Rain = 0
KMC1 210419Z 12007KT 28/16 A2996 RMK A01 T02790160  RH  048%=      5-min Rain = 0
KMC1 210420Z 12006KT 28/16 A2996 RMK A01 T02800161  RH  048%=      5-min Rain = 0
KMC1 210421Z 13007KT 28/16 A2996 RMK A01 T02790161  RH  049%=      5-min Rain = 0
KMC1 210422Z 13007KT 28/16 A2996 RMK A01 T02780161  RH  049%=      5-min Rain = 0
KMC1 210423Z 12007KT 28/16 A2996 RMK A01 T02780161  RH  049%=      5-min Rain = 0
KMC1 210424Z 13007KT 28/16 A2996 RMK A01 T02780161  RH  049%=      5-min Rain = 0
KMC1 210425Z 13007KT 28/16 A2996 RMK A01 T02780161  RH  049%=      5-min Rain = 0
KMC1 210426Z 12007KT 28/16 A2996 RMK A01 T02770161  RH  049%=      5-min Rain = 0
KMC1 210427Z 12007KT 28/16 A2996 RMK A01 T02770161  RH  049%=      5-min Rain = 0
KMC1 210428Z 13006KT 28/16 A2996 RMK A01 T02770161  RH  049%=      5-min Rain = 0
KMC1 210429Z 12006KT 28/16 A2996 RMK A01 T02770161  RH  049%=      5-min Rain = 0
KMC1 210430Z 13007KT 28/16 A2996 RMK A01 T02760161  RH  049%=      5-min Rain = 0
KMC1 210431Z 12007KT 28/16 A2996 RMK A01 T02760161  RH  050%=      5-min Rain = 0
KMC1 210432Z 12007KT 28/16 A2996 RMK A01 T02760162  RH  050%=      5-min Rain = 0
KMC1 210433Z 12006KT 28/16 A2996 RMK A01 T02760161  RH  050%=      5-min Rain = 0
KMC1 210434Z 12006KT 28/16 A2996 RMK A01 T02750161  RH  050%=      5-min Rain = 0
KMC1 210435Z 12007KT 28/16 A2996 RMK A01 T02750161  RH  050%=      5-min Rain = 0
KMC1 210436Z 12006KT 27/16 A2996 RMK A01 T02740161  RH  050%=      5-min Rain = 0
KMC1 210437Z 11007KT 27/16 A2996 RMK A01 T02740161  RH  050%=      5-min Rain = 0
KMC1 210438Z 11006KT 27/16 A2996 RMK A01 T02730161  RH  050%=      5-min Rain = 0
KMC1 210439Z 12005KT 27/16 A2996 RMK A01 T02730161  RH  051%=      5-min Rain = 0
KMC1 210440Z 11005KT 27/16 A2996 RMK A01 T02720161  RH  051%=      5-min Rain = 0
KMC1 210441Z 12007KT 27/16 A2996 RMK A01 T02710161  RH  051%=      5-min Rain = 0
KMC1 210442Z 12006KT 27/16 A2996 RMK A01 T02700161  RH  051%=      5-min Rain = 0
KMC1 210443Z 12006KT 27/16 A2996 RMK A01 T02700161  RH  051%=      5-min Rain = 0
KMC1 210444Z 12006KT 27/16 A2996 RMK A01 T02690161  RH  052%=      5-min Rain = 0
KMC1 210445Z 12009KT 27/16 A2996 RMK A01 T02690162  RH  052%=      5-min Rain = 0
KMC1 210446Z 13009G14KT 27/16 A2996 RMK A01 T02690162  RH  052%=      5-min Rain = 0
KMC1 210447Z 13008KT 27/16 A2996 RMK A01 T02700163  RH  052%=      5-min Rain = 0
KMC1 210448Z 13008KT 27/16 A2996 RMK A01 T02700164  RH  052%=      5-min Rain = 0
KMC1 210449Z 12010KT 27/16 A2996 RMK A01 T02710164  RH  052%=      5-min Rain = 0
KMC1 210450Z 13008KT 27/17 A2996 RMK A01 T02710165  RH  052%=      5-min Rain = 0
KMC1 210451Z 13009KT 27/17 A2996 RMK A01 T02720165  RH  052%=      5-min Rain = 0
KMC1 210452Z 13009KT 27/17 A2996 RMK A01 T02730166  RH  052%=      5-min Rain = 0
KMC1 210453Z 12008KT 27/17 A2996 RMK A01 T02720166  RH  052%=      5-min Rain = 0
KMC1 210454Z 13008KT 27/17 A2996 RMK A01 T02730167  RH  052%=      5-min Rain = 0
KMC1 210455Z 12010KT 27/17 A2996 RMK A01 T02720167  RH  053%=      5-min Rain = 0
KMC1 210456Z 13009KT 27/17 A2996 RMK A01 T02730168  RH  053%=      5-min Rain = 0
KMC1 210457Z 12009KT 27/17 A2996 RMK A01 T02730168  RH  053%=      5-min Rain = 0
KMC1 210458Z 13011KT 27/17 A2996 RMK A01 T02740169  RH  053%=      5-min Rain = 0
KMC1 210459Z 13009KT 27/17 A2996 RMK A01 T02740169  RH  053%=      5-min Rain = 0

Page generated in 0.122 seconds.